<?xml version="1.0" encoding="UTF-8" standalone="no" ?>
<gpx xmlns="http://www.topografix.com/GPX/1/1" xmlns:xsi="http://www.w3.org/2001/XMLSchema-instance" xsi:schemaLocation="http://www.topografix.com/GPX/1/1 http://www.topografix.com/GPX/1/1/gpx.xsd" version="1.1" creator="VisuGPX - https://www.visugpx.com">
  <metadata>
    <name>Dreuil les Amiens _ Samara - 15km</name>
    <desc><![CDATA[Walkmeter Marche 2 sept. 2012 09:06:50]]></desc>
  </metadata>
  <trk>
    <name><![CDATA[Chemins en Somme]]></name>
    <trkseg>
      <trkpt lat="49.92102" lon="2.22874">
        <ele>21.3</ele>
        <time>2012-09-02T07:06:50Z</time>
      </trkpt>
      <trkpt lat="49.92101" lon="2.22859">
        <ele>20.9</ele>
        <time>2012-09-02T07:06:53Z</time>
      </trkpt>
      <trkpt lat="49.92101" lon="2.22859">
        <ele>20.9</ele>
        <time>2012-09-02T07:07:30Z</time>
      </trkpt>
      <trkpt lat="49.92102" lon="2.22845">
        <ele>21.2</ele>
        <time>2012-09-02T07:07:36Z</time>
      </trkpt>
      <trkpt lat="49.92109" lon="2.22823">
        <ele>21.2</ele>
        <time>2012-09-02T07:07:49Z</time>
      </trkpt>
      <trkpt lat="49.92118" lon="2.22807">
        <ele>19.8</ele>
        <time>2012-09-02T07:07:59Z</time>
      </trkpt>
      <trkpt lat="49.92129" lon="2.22784">
        <ele>18</ele>
        <time>2012-09-02T07:08:09Z</time>
      </trkpt>
      <trkpt lat="49.92134" lon="2.22763">
        <ele>14.3</ele>
        <time>2012-09-02T07:08:30Z</time>
      </trkpt>
      <trkpt lat="49.92144" lon="2.2274">
        <ele>11.5</ele>
        <time>2012-09-02T07:08:46Z</time>
      </trkpt>
      <trkpt lat="49.92154" lon="2.22724">
        <ele>9.2</ele>
        <time>2012-09-02T07:08:59Z</time>
      </trkpt>
      <trkpt lat="49.92161" lon="2.22706">
        <ele>8</ele>
        <time>2012-09-02T07:09:06Z</time>
      </trkpt>
      <trkpt lat="49.92171" lon="2.22686">
        <ele>13.1</ele>
        <time>2012-09-02T07:09:19Z</time>
      </trkpt>
      <trkpt lat="49.92178" lon="2.22668">
        <ele>17.9</ele>
        <time>2012-09-02T07:09:31Z</time>
      </trkpt>
      <trkpt lat="49.92188" lon="2.22652">
        <ele>17.9</ele>
        <time>2012-09-02T07:09:39Z</time>
      </trkpt>
      <trkpt lat="49.92194" lon="2.22632">
        <ele>17.9</ele>
        <time>2012-09-02T07:09:52Z</time>
      </trkpt>
      <trkpt lat="49.922" lon="2.22612">
        <ele>17.9</ele>
        <time>2012-09-02T07:10:04Z</time>
      </trkpt>
      <trkpt lat="49.92205" lon="2.22591">
        <ele>17.9</ele>
        <time>2012-09-02T07:10:14Z</time>
      </trkpt>
      <trkpt lat="49.92209" lon="2.2257">
        <ele>17.9</ele>
        <time>2012-09-02T07:10:27Z</time>
      </trkpt>
      <trkpt lat="49.92214" lon="2.22549">
        <ele>17.9</ele>
        <time>2012-09-02T07:10:39Z</time>
      </trkpt>
      <trkpt lat="49.92218" lon="2.22528">
        <ele>17.9</ele>
        <time>2012-09-02T07:10:51Z</time>
      </trkpt>
      <trkpt lat="49.92221" lon="2.22508">
        <ele>17.9</ele>
        <time>2012-09-02T07:11:03Z</time>
      </trkpt>
      <trkpt lat="49.92228" lon="2.22488">
        <ele>17.9</ele>
        <time>2012-09-02T07:11:12Z</time>
      </trkpt>
      <trkpt lat="49.92234" lon="2.22468">
        <ele>17.9</ele>
        <time>2012-09-02T07:11:26Z</time>
      </trkpt>
      <trkpt lat="49.92238" lon="2.22447">
        <ele>10.5</ele>
        <time>2012-09-02T07:11:37Z</time>
      </trkpt>
      <trkpt lat="49.92243" lon="2.22426">
        <ele>4.4</ele>
        <time>2012-09-02T07:11:53Z</time>
      </trkpt>
      <trkpt lat="49.92247" lon="2.22404">
        <ele>4.4</ele>
        <time>2012-09-02T07:12:05Z</time>
      </trkpt>
      <trkpt lat="49.9225" lon="2.22384">
        <ele>4.4</ele>
        <time>2012-09-02T07:12:17Z</time>
      </trkpt>
      <trkpt lat="49.92255" lon="2.22364">
        <ele>4.4</ele>
        <time>2012-09-02T07:12:30Z</time>
      </trkpt>
      <trkpt lat="49.92262" lon="2.22345">
        <ele>4.4</ele>
        <time>2012-09-02T07:12:41Z</time>
      </trkpt>
      <trkpt lat="49.92272" lon="2.22327">
        <ele>4.4</ele>
        <time>2012-09-02T07:12:53Z</time>
      </trkpt>
      <trkpt lat="49.92284" lon="2.22314">
        <ele>4.4</ele>
        <time>2012-09-02T07:13:02Z</time>
      </trkpt>
      <trkpt lat="49.92296" lon="2.22298">
        <ele>4.4</ele>
        <time>2012-09-02T07:13:14Z</time>
      </trkpt>
      <trkpt lat="49.92306" lon="2.22291">
        <ele>6.9</ele>
        <time>2012-09-02T07:13:28Z</time>
      </trkpt>
      <trkpt lat="49.92319" lon="2.22302">
        <ele>11.4</ele>
        <time>2012-09-02T07:13:39Z</time>
      </trkpt>
      <trkpt lat="49.92331" lon="2.2231">
        <ele>15.2</ele>
        <time>2012-09-02T07:13:48Z</time>
      </trkpt>
      <trkpt lat="49.92343" lon="2.22322">
        <ele>15.6</ele>
        <time>2012-09-02T07:13:57Z</time>
      </trkpt>
      <trkpt lat="49.92356" lon="2.22332">
        <ele>15.6</ele>
        <time>2012-09-02T07:14:04Z</time>
      </trkpt>
      <trkpt lat="49.92371" lon="2.22347">
        <ele>15.6</ele>
        <time>2012-09-02T07:14:16Z</time>
      </trkpt>
      <trkpt lat="49.92384" lon="2.22356">
        <ele>15.6</ele>
        <time>2012-09-02T07:14:29Z</time>
      </trkpt>
      <trkpt lat="49.92397" lon="2.22368">
        <ele>15.6</ele>
        <time>2012-09-02T07:14:39Z</time>
      </trkpt>
      <trkpt lat="49.9241" lon="2.22377">
        <ele>15.6</ele>
        <time>2012-09-02T07:14:48Z</time>
      </trkpt>
      <trkpt lat="49.92422" lon="2.22388">
        <ele>15.6</ele>
        <time>2012-09-02T07:14:58Z</time>
      </trkpt>
      <trkpt lat="49.92435" lon="2.22398">
        <ele>15.6</ele>
        <time>2012-09-02T07:15:11Z</time>
      </trkpt>
      <trkpt lat="49.92447" lon="2.2241">
        <ele>15.6</ele>
        <time>2012-09-02T07:15:20Z</time>
      </trkpt>
      <trkpt lat="49.92459" lon="2.22421">
        <ele>15.6</ele>
        <time>2012-09-02T07:15:31Z</time>
      </trkpt>
      <trkpt lat="49.92473" lon="2.2243">
        <ele>15.6</ele>
        <time>2012-09-02T07:15:45Z</time>
      </trkpt>
      <trkpt lat="49.92484" lon="2.22438">
        <ele>15.6</ele>
        <time>2012-09-02T07:15:55Z</time>
      </trkpt>
      <trkpt lat="49.92493" lon="2.22421">
        <ele>15.6</ele>
        <time>2012-09-02T07:16:05Z</time>
      </trkpt>
      <trkpt lat="49.92505" lon="2.22411">
        <ele>15.6</ele>
        <time>2012-09-02T07:16:18Z</time>
      </trkpt>
      <trkpt lat="49.92518" lon="2.224">
        <ele>15.2</ele>
        <time>2012-09-02T07:16:28Z</time>
      </trkpt>
      <trkpt lat="49.92531" lon="2.22396">
        <ele>10.6</ele>
        <time>2012-09-02T07:16:41Z</time>
      </trkpt>
      <trkpt lat="49.92545" lon="2.22403">
        <ele>6.7</ele>
        <time>2012-09-02T07:16:52Z</time>
      </trkpt>
      <trkpt lat="49.92558" lon="2.22409">
        <ele>2.4</ele>
        <time>2012-09-02T07:17:04Z</time>
      </trkpt>
      <trkpt lat="49.92571" lon="2.22414">
        <ele>6.1</ele>
        <time>2012-09-02T07:17:13Z</time>
      </trkpt>
      <trkpt lat="49.92587" lon="2.22417">
        <ele>11.8</ele>
        <time>2012-09-02T07:17:24Z</time>
      </trkpt>
      <trkpt lat="49.926" lon="2.2242">
        <ele>11.1</ele>
        <time>2012-09-02T07:17:36Z</time>
      </trkpt>
      <trkpt lat="49.92614" lon="2.22421">
        <ele>8.6</ele>
        <time>2012-09-02T07:17:46Z</time>
      </trkpt>
      <trkpt lat="49.92627" lon="2.22425">
        <ele>6</ele>
        <time>2012-09-02T07:17:56Z</time>
      </trkpt>
      <trkpt lat="49.92642" lon="2.22433">
        <ele>3.5</ele>
        <time>2012-09-02T07:18:06Z</time>
      </trkpt>
      <trkpt lat="49.92656" lon="2.22436">
        <ele>14.2</ele>
        <time>2012-09-02T07:18:20Z</time>
      </trkpt>
      <trkpt lat="49.92669" lon="2.22443">
        <ele>14.2</ele>
        <time>2012-09-02T07:18:31Z</time>
      </trkpt>
      <trkpt lat="49.92683" lon="2.22446">
        <ele>14.2</ele>
        <time>2012-09-02T07:18:42Z</time>
      </trkpt>
      <trkpt lat="49.92698" lon="2.2245">
        <ele>14.2</ele>
        <time>2012-09-02T07:18:53Z</time>
      </trkpt>
      <trkpt lat="49.92712" lon="2.22455">
        <ele>14.2</ele>
        <time>2012-09-02T07:19:04Z</time>
      </trkpt>
      <trkpt lat="49.92726" lon="2.2246">
        <ele>14.2</ele>
        <time>2012-09-02T07:19:16Z</time>
      </trkpt>
      <trkpt lat="49.9274" lon="2.22464">
        <ele>14.2</ele>
        <time>2012-09-02T07:19:27Z</time>
      </trkpt>
      <trkpt lat="49.92754" lon="2.2247">
        <ele>14.2</ele>
        <time>2012-09-02T07:19:39Z</time>
      </trkpt>
      <trkpt lat="49.92768" lon="2.22476">
        <ele>14.2</ele>
        <time>2012-09-02T07:19:50Z</time>
      </trkpt>
      <trkpt lat="49.92775" lon="2.2248">
        <ele>14.2</ele>
        <time>2012-09-02T07:19:56Z</time>
      </trkpt>
      <trkpt lat="49.92788" lon="2.22473">
        <ele>14.2</ele>
        <time>2012-09-02T07:20:07Z</time>
      </trkpt>
      <trkpt lat="49.92803" lon="2.22476">
        <ele>14.2</ele>
        <time>2012-09-02T07:20:20Z</time>
      </trkpt>
      <trkpt lat="49.92816" lon="2.22483">
        <ele>14.2</ele>
        <time>2012-09-02T07:20:42Z</time>
      </trkpt>
      <trkpt lat="49.92827" lon="2.22467">
        <ele>14.2</ele>
        <time>2012-09-02T07:21:06Z</time>
      </trkpt>
      <trkpt lat="49.92833" lon="2.22447">
        <ele>14.2</ele>
        <time>2012-09-02T07:21:14Z</time>
      </trkpt>
      <trkpt lat="49.92838" lon="2.22426">
        <ele>14.2</ele>
        <time>2012-09-02T07:21:23Z</time>
      </trkpt>
      <trkpt lat="49.92842" lon="2.22406">
        <ele>14.2</ele>
        <time>2012-09-02T07:21:34Z</time>
      </trkpt>
      <trkpt lat="49.92846" lon="2.22386">
        <ele>14.2</ele>
        <time>2012-09-02T07:21:44Z</time>
      </trkpt>
      <trkpt lat="49.92852" lon="2.22366">
        <ele>14.2</ele>
        <time>2012-09-02T07:21:55Z</time>
      </trkpt>
      <trkpt lat="49.92859" lon="2.22344">
        <ele>14.2</ele>
        <time>2012-09-02T07:22:06Z</time>
      </trkpt>
      <trkpt lat="49.92864" lon="2.22324">
        <ele>14.2</ele>
        <time>2012-09-02T07:22:17Z</time>
      </trkpt>
      <trkpt lat="49.9287" lon="2.22303">
        <ele>14.2</ele>
        <time>2012-09-02T07:22:29Z</time>
      </trkpt>
      <trkpt lat="49.9287" lon="2.22282">
        <ele>14.2</ele>
        <time>2012-09-02T07:22:53Z</time>
      </trkpt>
      <trkpt lat="49.92874" lon="2.22261">
        <ele>14.2</ele>
        <time>2012-09-02T07:23:10Z</time>
      </trkpt>
      <trkpt lat="49.92875" lon="2.22251">
        <ele>14.2</ele>
        <time>2012-09-02T07:23:19Z</time>
      </trkpt>
      <trkpt lat="49.92874" lon="2.22226">
        <ele>14.2</ele>
        <time>2012-09-02T07:23:32Z</time>
      </trkpt>
      <trkpt lat="49.92883" lon="2.2221">
        <ele>14.2</ele>
        <time>2012-09-02T07:23:50Z</time>
      </trkpt>
      <trkpt lat="49.92891" lon="2.22191">
        <ele>14.2</ele>
        <time>2012-09-02T07:24:01Z</time>
      </trkpt>
      <trkpt lat="49.92899" lon="2.22171">
        <ele>14.2</ele>
        <time>2012-09-02T07:24:13Z</time>
      </trkpt>
      <trkpt lat="49.92904" lon="2.22151">
        <ele>17.7</ele>
        <time>2012-09-02T07:24:22Z</time>
      </trkpt>
      <trkpt lat="49.92902" lon="2.2213">
        <ele>22.6</ele>
        <time>2012-09-02T07:24:32Z</time>
      </trkpt>
      <trkpt lat="49.92893" lon="2.22113">
        <ele>20.1</ele>
        <time>2012-09-02T07:24:43Z</time>
      </trkpt>
      <trkpt lat="49.92887" lon="2.22094">
        <ele>8.8</ele>
        <time>2012-09-02T07:24:59Z</time>
      </trkpt>
      <trkpt lat="49.92878" lon="2.22074">
        <ele>4.4</ele>
        <time>2012-09-02T07:25:08Z</time>
      </trkpt>
      <trkpt lat="49.92868" lon="2.22058">
        <ele>10.2</ele>
        <time>2012-09-02T07:25:22Z</time>
      </trkpt>
      <trkpt lat="49.92857" lon="2.22041">
        <ele>16.5</ele>
        <time>2012-09-02T07:25:34Z</time>
      </trkpt>
      <trkpt lat="49.92844" lon="2.22032">
        <ele>19.6</ele>
        <time>2012-09-02T07:25:45Z</time>
      </trkpt>
      <trkpt lat="49.92835" lon="2.22016">
        <ele>19.6</ele>
        <time>2012-09-02T07:25:57Z</time>
      </trkpt>
      <trkpt lat="49.92822" lon="2.22">
        <ele>19.6</ele>
        <time>2012-09-02T07:26:13Z</time>
      </trkpt>
      <trkpt lat="49.92817" lon="2.2197">
        <ele>15.6</ele>
        <time>2012-09-02T07:26:38Z</time>
      </trkpt>
      <trkpt lat="49.92817" lon="2.2197">
        <ele>15.6</ele>
        <time>2012-09-02T07:28:04Z</time>
      </trkpt>
      <trkpt lat="49.92826" lon="2.2195">
        <ele>11.6</ele>
        <time>2012-09-02T07:28:07Z</time>
      </trkpt>
      <trkpt lat="49.92837" lon="2.21926">
        <ele>11.6</ele>
        <time>2012-09-02T07:28:16Z</time>
      </trkpt>
      <trkpt lat="49.92847" lon="2.21911">
        <ele>11.6</ele>
        <time>2012-09-02T07:28:29Z</time>
      </trkpt>
      <trkpt lat="49.92855" lon="2.21893">
        <ele>11.6</ele>
        <time>2012-09-02T07:28:39Z</time>
      </trkpt>
      <trkpt lat="49.92864" lon="2.21875">
        <ele>11.6</ele>
        <time>2012-09-02T07:28:49Z</time>
      </trkpt>
      <trkpt lat="49.92873" lon="2.21858">
        <ele>11.6</ele>
        <time>2012-09-02T07:28:59Z</time>
      </trkpt>
      <trkpt lat="49.92884" lon="2.21843">
        <ele>11.6</ele>
        <time>2012-09-02T07:29:11Z</time>
      </trkpt>
      <trkpt lat="49.92895" lon="2.21828">
        <ele>11.6</ele>
        <time>2012-09-02T07:29:22Z</time>
      </trkpt>
      <trkpt lat="49.92904" lon="2.21811">
        <ele>11.6</ele>
        <time>2012-09-02T07:29:31Z</time>
      </trkpt>
      <trkpt lat="49.92913" lon="2.21794">
        <ele>11.6</ele>
        <time>2012-09-02T07:29:43Z</time>
      </trkpt>
      <trkpt lat="49.92921" lon="2.21775">
        <ele>11.6</ele>
        <time>2012-09-02T07:29:53Z</time>
      </trkpt>
      <trkpt lat="49.92932" lon="2.2176">
        <ele>11.6</ele>
        <time>2012-09-02T07:30:04Z</time>
      </trkpt>
      <trkpt lat="49.92946" lon="2.21743">
        <ele>11.6</ele>
        <time>2012-09-02T07:30:17Z</time>
      </trkpt>
      <trkpt lat="49.92955" lon="2.21724">
        <ele>11.6</ele>
        <time>2012-09-02T07:30:30Z</time>
      </trkpt>
      <trkpt lat="49.92963" lon="2.21705">
        <ele>11.6</ele>
        <time>2012-09-02T07:30:41Z</time>
      </trkpt>
      <trkpt lat="49.92971" lon="2.21688">
        <ele>11.6</ele>
        <time>2012-09-02T07:30:50Z</time>
      </trkpt>
      <trkpt lat="49.92983" lon="2.21671">
        <ele>11.6</ele>
        <time>2012-09-02T07:31:02Z</time>
      </trkpt>
      <trkpt lat="49.92993" lon="2.21654">
        <ele>11.6</ele>
        <time>2012-09-02T07:31:12Z</time>
      </trkpt>
      <trkpt lat="49.93003" lon="2.21636">
        <ele>11.6</ele>
        <time>2012-09-02T07:31:24Z</time>
      </trkpt>
      <trkpt lat="49.93012" lon="2.21618">
        <ele>11.6</ele>
        <time>2012-09-02T07:31:35Z</time>
      </trkpt>
      <trkpt lat="49.93025" lon="2.21601">
        <ele>11.6</ele>
        <time>2012-09-02T07:31:44Z</time>
      </trkpt>
      <trkpt lat="49.93037" lon="2.2158">
        <ele>11.6</ele>
        <time>2012-09-02T07:31:57Z</time>
      </trkpt>
      <trkpt lat="49.93045" lon="2.21562">
        <ele>11.6</ele>
        <time>2012-09-02T07:32:10Z</time>
      </trkpt>
      <trkpt lat="49.93053" lon="2.21543">
        <ele>11.6</ele>
        <time>2012-09-02T07:32:20Z</time>
      </trkpt>
      <trkpt lat="49.93061" lon="2.21525">
        <ele>11.6</ele>
        <time>2012-09-02T07:32:31Z</time>
      </trkpt>
      <trkpt lat="49.93071" lon="2.2151">
        <ele>11.6</ele>
        <time>2012-09-02T07:32:38Z</time>
      </trkpt>
      <trkpt lat="49.9308" lon="2.21492">
        <ele>11.6</ele>
        <time>2012-09-02T07:32:50Z</time>
      </trkpt>
      <trkpt lat="49.93088" lon="2.21475">
        <ele>11.6</ele>
        <time>2012-09-02T07:33:01Z</time>
      </trkpt>
      <trkpt lat="49.93097" lon="2.21458">
        <ele>11.6</ele>
        <time>2012-09-02T07:33:13Z</time>
      </trkpt>
      <trkpt lat="49.93092" lon="2.21434">
        <ele>11.6</ele>
        <time>2012-09-02T07:33:23Z</time>
      </trkpt>
      <trkpt lat="49.93081" lon="2.21413">
        <ele>11.6</ele>
        <time>2012-09-02T07:33:34Z</time>
      </trkpt>
      <trkpt lat="49.93073" lon="2.21394">
        <ele>11.6</ele>
        <time>2012-09-02T07:33:46Z</time>
      </trkpt>
      <trkpt lat="49.93062" lon="2.21379">
        <ele>11.6</ele>
        <time>2012-09-02T07:33:57Z</time>
      </trkpt>
      <trkpt lat="49.93056" lon="2.21359">
        <ele>11.6</ele>
        <time>2012-09-02T07:34:08Z</time>
      </trkpt>
      <trkpt lat="49.93059" lon="2.21338">
        <ele>11.6</ele>
        <time>2012-09-02T07:34:18Z</time>
      </trkpt>
      <trkpt lat="49.93061" lon="2.21315">
        <ele>11.6</ele>
        <time>2012-09-02T07:34:29Z</time>
      </trkpt>
      <trkpt lat="49.93064" lon="2.21294">
        <ele>11.6</ele>
        <time>2012-09-02T07:34:40Z</time>
      </trkpt>
      <trkpt lat="49.93067" lon="2.21271">
        <ele>11.6</ele>
        <time>2012-09-02T07:34:50Z</time>
      </trkpt>
      <trkpt lat="49.9307" lon="2.21249">
        <ele>11.6</ele>
        <time>2012-09-02T07:35:01Z</time>
      </trkpt>
      <trkpt lat="49.93069" lon="2.21226">
        <ele>11.6</ele>
        <time>2012-09-02T07:35:11Z</time>
      </trkpt>
      <trkpt lat="49.93069" lon="2.21205">
        <ele>11.6</ele>
        <time>2012-09-02T07:35:20Z</time>
      </trkpt>
      <trkpt lat="49.93069" lon="2.21179">
        <ele>11.6</ele>
        <time>2012-09-02T07:35:30Z</time>
      </trkpt>
      <trkpt lat="49.93067" lon="2.21156">
        <ele>11.6</ele>
        <time>2012-09-02T07:35:42Z</time>
      </trkpt>
      <trkpt lat="49.9307" lon="2.21135">
        <ele>11.6</ele>
        <time>2012-09-02T07:35:53Z</time>
      </trkpt>
      <trkpt lat="49.93076" lon="2.21113">
        <ele>11.6</ele>
        <time>2012-09-02T07:36:03Z</time>
      </trkpt>
      <trkpt lat="49.93082" lon="2.21092">
        <ele>11.6</ele>
        <time>2012-09-02T07:36:14Z</time>
      </trkpt>
      <trkpt lat="49.93088" lon="2.21071">
        <ele>11.6</ele>
        <time>2012-09-02T07:36:24Z</time>
      </trkpt>
      <trkpt lat="49.93094" lon="2.21052">
        <ele>11.6</ele>
        <time>2012-09-02T07:36:35Z</time>
      </trkpt>
      <trkpt lat="49.931" lon="2.21032">
        <ele>11.6</ele>
        <time>2012-09-02T07:36:46Z</time>
      </trkpt>
      <trkpt lat="49.93105" lon="2.2101">
        <ele>11.6</ele>
        <time>2012-09-02T07:36:57Z</time>
      </trkpt>
      <trkpt lat="49.93108" lon="2.20987">
        <ele>11.6</ele>
        <time>2012-09-02T07:37:08Z</time>
      </trkpt>
      <trkpt lat="49.9311" lon="2.20967">
        <ele>11.6</ele>
        <time>2012-09-02T07:37:17Z</time>
      </trkpt>
      <trkpt lat="49.93113" lon="2.20945">
        <ele>11.6</ele>
        <time>2012-09-02T07:37:27Z</time>
      </trkpt>
      <trkpt lat="49.93115" lon="2.20923">
        <ele>11.6</ele>
        <time>2012-09-02T07:37:38Z</time>
      </trkpt>
      <trkpt lat="49.93115" lon="2.20902">
        <ele>11.6</ele>
        <time>2012-09-02T07:37:47Z</time>
      </trkpt>
      <trkpt lat="49.93118" lon="2.20881">
        <ele>11.6</ele>
        <time>2012-09-02T07:37:57Z</time>
      </trkpt>
      <trkpt lat="49.93118" lon="2.20859">
        <ele>11.6</ele>
        <time>2012-09-02T07:38:08Z</time>
      </trkpt>
      <trkpt lat="49.9312" lon="2.20838">
        <ele>11.6</ele>
        <time>2012-09-02T07:38:17Z</time>
      </trkpt>
      <trkpt lat="49.93123" lon="2.20816">
        <ele>11.6</ele>
        <time>2012-09-02T07:38:28Z</time>
      </trkpt>
      <trkpt lat="49.93127" lon="2.20796">
        <ele>11.6</ele>
        <time>2012-09-02T07:38:38Z</time>
      </trkpt>
      <trkpt lat="49.93134" lon="2.20775">
        <ele>11.6</ele>
        <time>2012-09-02T07:38:47Z</time>
      </trkpt>
      <trkpt lat="49.9314" lon="2.20754">
        <ele>11.6</ele>
        <time>2012-09-02T07:38:57Z</time>
      </trkpt>
      <trkpt lat="49.93144" lon="2.20732">
        <ele>11.6</ele>
        <time>2012-09-02T07:39:08Z</time>
      </trkpt>
      <trkpt lat="49.93149" lon="2.20711">
        <ele>11.6</ele>
        <time>2012-09-02T07:39:19Z</time>
      </trkpt>
      <trkpt lat="49.93155" lon="2.20692">
        <ele>11.6</ele>
        <time>2012-09-02T07:39:28Z</time>
      </trkpt>
      <trkpt lat="49.93163" lon="2.20673">
        <ele>11.6</ele>
        <time>2012-09-02T07:39:38Z</time>
      </trkpt>
      <trkpt lat="49.93168" lon="2.20652">
        <ele>11.6</ele>
        <time>2012-09-02T07:39:48Z</time>
      </trkpt>
      <trkpt lat="49.93174" lon="2.20633">
        <ele>11.6</ele>
        <time>2012-09-02T07:39:59Z</time>
      </trkpt>
      <trkpt lat="49.93181" lon="2.20615">
        <ele>11.6</ele>
        <time>2012-09-02T07:40:09Z</time>
      </trkpt>
      <trkpt lat="49.93189" lon="2.20597">
        <ele>11.6</ele>
        <time>2012-09-02T07:40:20Z</time>
      </trkpt>
      <trkpt lat="49.93197" lon="2.20577">
        <ele>11.6</ele>
        <time>2012-09-02T07:40:31Z</time>
      </trkpt>
      <trkpt lat="49.93205" lon="2.2056">
        <ele>11.6</ele>
        <time>2012-09-02T07:40:42Z</time>
      </trkpt>
      <trkpt lat="49.93212" lon="2.2054">
        <ele>11.6</ele>
        <time>2012-09-02T07:40:53Z</time>
      </trkpt>
      <trkpt lat="49.9322" lon="2.20522">
        <ele>11.6</ele>
        <time>2012-09-02T07:41:04Z</time>
      </trkpt>
      <trkpt lat="49.93241" lon="2.20491">
        <ele>15.5</ele>
        <time>2012-09-02T07:41:18Z</time>
      </trkpt>
      <trkpt lat="49.93241" lon="2.20491">
        <ele>15.5</ele>
        <time>2012-09-02T07:43:43Z</time>
      </trkpt>
      <trkpt lat="49.93253" lon="2.20477">
        <ele>19.4</ele>
        <time>2012-09-02T07:43:54Z</time>
      </trkpt>
      <trkpt lat="49.93265" lon="2.20466">
        <ele>16.5</ele>
        <time>2012-09-02T07:44:04Z</time>
      </trkpt>
      <trkpt lat="49.93278" lon="2.20459">
        <ele>13.6</ele>
        <time>2012-09-02T07:44:14Z</time>
      </trkpt>
      <trkpt lat="49.9329" lon="2.20451">
        <ele>10.5</ele>
        <time>2012-09-02T07:44:25Z</time>
      </trkpt>
      <trkpt lat="49.93304" lon="2.20439">
        <ele>9.3</ele>
        <time>2012-09-02T07:44:36Z</time>
      </trkpt>
      <trkpt lat="49.93319" lon="2.20424">
        <ele>9.3</ele>
        <time>2012-09-02T07:44:48Z</time>
      </trkpt>
      <trkpt lat="49.93331" lon="2.20412">
        <ele>9.3</ele>
        <time>2012-09-02T07:45:01Z</time>
      </trkpt>
      <trkpt lat="49.93343" lon="2.20401">
        <ele>9.3</ele>
        <time>2012-09-02T07:45:11Z</time>
      </trkpt>
      <trkpt lat="49.93352" lon="2.20383">
        <ele>9.3</ele>
        <time>2012-09-02T07:45:20Z</time>
      </trkpt>
      <trkpt lat="49.93366" lon="2.20368">
        <ele>9.3</ele>
        <time>2012-09-02T07:45:32Z</time>
      </trkpt>
      <trkpt lat="49.93376" lon="2.20352">
        <ele>9.3</ele>
        <time>2012-09-02T07:45:45Z</time>
      </trkpt>
      <trkpt lat="49.93385" lon="2.20337">
        <ele>9.3</ele>
        <time>2012-09-02T07:45:53Z</time>
      </trkpt>
      <trkpt lat="49.93396" lon="2.20323">
        <ele>9.3</ele>
        <time>2012-09-02T07:46:04Z</time>
      </trkpt>
      <trkpt lat="49.93406" lon="2.20307">
        <ele>9.3</ele>
        <time>2012-09-02T07:46:14Z</time>
      </trkpt>
      <trkpt lat="49.93417" lon="2.20292">
        <ele>9.3</ele>
        <time>2012-09-02T07:46:25Z</time>
      </trkpt>
      <trkpt lat="49.93428" lon="2.20278">
        <ele>11.7</ele>
        <time>2012-09-02T07:46:36Z</time>
      </trkpt>
      <trkpt lat="49.9344" lon="2.20263">
        <ele>14.3</ele>
        <time>2012-09-02T07:46:46Z</time>
      </trkpt>
      <trkpt lat="49.93453" lon="2.20247">
        <ele>17.4</ele>
        <time>2012-09-02T07:46:58Z</time>
      </trkpt>
      <trkpt lat="49.93462" lon="2.20231">
        <ele>20.6</ele>
        <time>2012-09-02T07:47:11Z</time>
      </trkpt>
      <trkpt lat="49.93473" lon="2.20216">
        <ele>20.6</ele>
        <time>2012-09-02T07:47:22Z</time>
      </trkpt>
      <trkpt lat="49.93486" lon="2.20204">
        <ele>20.6</ele>
        <time>2012-09-02T07:47:33Z</time>
      </trkpt>
      <trkpt lat="49.93497" lon="2.20187">
        <ele>20.6</ele>
        <time>2012-09-02T07:47:43Z</time>
      </trkpt>
      <trkpt lat="49.93507" lon="2.20171">
        <ele>20.6</ele>
        <time>2012-09-02T07:47:53Z</time>
      </trkpt>
      <trkpt lat="49.93517" lon="2.20156">
        <ele>20.6</ele>
        <time>2012-09-02T07:48:04Z</time>
      </trkpt>
      <trkpt lat="49.93527" lon="2.20142">
        <ele>20.6</ele>
        <time>2012-09-02T07:48:14Z</time>
      </trkpt>
      <trkpt lat="49.93539" lon="2.20123">
        <ele>19.7</ele>
        <time>2012-09-02T07:48:24Z</time>
      </trkpt>
      <trkpt lat="49.93549" lon="2.20107">
        <ele>9.2</ele>
        <time>2012-09-02T07:48:38Z</time>
      </trkpt>
      <trkpt lat="49.93563" lon="2.20101">
        <ele>13.2</ele>
        <time>2012-09-02T07:48:51Z</time>
      </trkpt>
      <trkpt lat="49.93575" lon="2.20113">
        <ele>19.3</ele>
        <time>2012-09-02T07:49:06Z</time>
      </trkpt>
      <trkpt lat="49.93588" lon="2.20128">
        <ele>19.7</ele>
        <time>2012-09-02T07:49:19Z</time>
      </trkpt>
      <trkpt lat="49.93599" lon="2.20142">
        <ele>19.7</ele>
        <time>2012-09-02T07:49:27Z</time>
      </trkpt>
      <trkpt lat="49.93612" lon="2.20155">
        <ele>19.7</ele>
        <time>2012-09-02T07:49:35Z</time>
      </trkpt>
      <trkpt lat="49.93625" lon="2.20164">
        <ele>18.3</ele>
        <time>2012-09-02T07:49:44Z</time>
      </trkpt>
      <trkpt lat="49.93638" lon="2.20174">
        <ele>14.1</ele>
        <time>2012-09-02T07:49:53Z</time>
      </trkpt>
      <trkpt lat="49.93648" lon="2.20189">
        <ele>9.5</ele>
        <time>2012-09-02T07:50:03Z</time>
      </trkpt>
      <trkpt lat="49.93657" lon="2.20208">
        <ele>9.5</ele>
        <time>2012-09-02T07:50:13Z</time>
      </trkpt>
      <trkpt lat="49.93672" lon="2.20222">
        <ele>9.5</ele>
        <time>2012-09-02T07:50:24Z</time>
      </trkpt>
      <trkpt lat="49.93684" lon="2.20233">
        <ele>9.5</ele>
        <time>2012-09-02T07:50:35Z</time>
      </trkpt>
      <trkpt lat="49.93693" lon="2.20253">
        <ele>9.5</ele>
        <time>2012-09-02T07:50:51Z</time>
      </trkpt>
      <trkpt lat="49.93702" lon="2.20268">
        <ele>9.5</ele>
        <time>2012-09-02T07:50:59Z</time>
      </trkpt>
      <trkpt lat="49.93714" lon="2.20278">
        <ele>9.5</ele>
        <time>2012-09-02T07:51:10Z</time>
      </trkpt>
      <trkpt lat="49.93727" lon="2.203">
        <ele>9.5</ele>
        <time>2012-09-02T07:51:20Z</time>
      </trkpt>
      <trkpt lat="49.93739" lon="2.20308">
        <ele>9.5</ele>
        <time>2012-09-02T07:51:32Z</time>
      </trkpt>
      <trkpt lat="49.93752" lon="2.20317">
        <ele>9.5</ele>
        <time>2012-09-02T07:51:44Z</time>
      </trkpt>
      <trkpt lat="49.93764" lon="2.20329">
        <ele>9.5</ele>
        <time>2012-09-02T07:51:53Z</time>
      </trkpt>
      <trkpt lat="49.93775" lon="2.20344">
        <ele>9.5</ele>
        <time>2012-09-02T07:52:04Z</time>
      </trkpt>
      <trkpt lat="49.93784" lon="2.2036">
        <ele>9.5</ele>
        <time>2012-09-02T07:52:15Z</time>
      </trkpt>
      <trkpt lat="49.93792" lon="2.20377">
        <ele>9.5</ele>
        <time>2012-09-02T07:52:25Z</time>
      </trkpt>
      <trkpt lat="49.93801" lon="2.20395">
        <ele>9.5</ele>
        <time>2012-09-02T07:52:35Z</time>
      </trkpt>
      <trkpt lat="49.93811" lon="2.20411">
        <ele>9.5</ele>
        <time>2012-09-02T07:52:45Z</time>
      </trkpt>
      <trkpt lat="49.93823" lon="2.20423">
        <ele>11.4</ele>
        <time>2012-09-02T07:52:56Z</time>
      </trkpt>
      <trkpt lat="49.93834" lon="2.20435">
        <ele>14.2</ele>
        <time>2012-09-02T07:53:05Z</time>
      </trkpt>
      <trkpt lat="49.93843" lon="2.2045">
        <ele>17.7</ele>
        <time>2012-09-02T07:53:16Z</time>
      </trkpt>
      <trkpt lat="49.93855" lon="2.20464">
        <ele>21.8</ele>
        <time>2012-09-02T07:53:29Z</time>
      </trkpt>
      <trkpt lat="49.93861" lon="2.20485">
        <ele>23.7</ele>
        <time>2012-09-02T07:53:45Z</time>
      </trkpt>
      <trkpt lat="49.93862" lon="2.20506">
        <ele>23.7</ele>
        <time>2012-09-02T07:53:56Z</time>
      </trkpt>
      <trkpt lat="49.93866" lon="2.20526">
        <ele>23.7</ele>
        <time>2012-09-02T07:54:05Z</time>
      </trkpt>
      <trkpt lat="49.93877" lon="2.20539">
        <ele>23.7</ele>
        <time>2012-09-02T07:54:15Z</time>
      </trkpt>
      <trkpt lat="49.9389" lon="2.20549">
        <ele>24</ele>
        <time>2012-09-02T07:54:25Z</time>
      </trkpt>
      <trkpt lat="49.93902" lon="2.20559">
        <ele>25.3</ele>
        <time>2012-09-02T07:54:34Z</time>
      </trkpt>
      <trkpt lat="49.93914" lon="2.20569">
        <ele>26.9</ele>
        <time>2012-09-02T07:54:44Z</time>
      </trkpt>
      <trkpt lat="49.93928" lon="2.20576">
        <ele>28.4</ele>
        <time>2012-09-02T07:54:54Z</time>
      </trkpt>
      <trkpt lat="49.93953" lon="2.20576">
        <ele>30.6</ele>
        <time>2012-09-02T07:55:09Z</time>
      </trkpt>
      <trkpt lat="49.93953" lon="2.20576">
        <ele>30.6</ele>
        <time>2012-09-02T07:57:12Z</time>
      </trkpt>
      <trkpt lat="49.93965" lon="2.20567">
        <ele>31.2</ele>
        <time>2012-09-02T07:57:18Z</time>
      </trkpt>
      <trkpt lat="49.93971" lon="2.20546">
        <ele>31.2</ele>
        <time>2012-09-02T07:57:29Z</time>
      </trkpt>
      <trkpt lat="49.93977" lon="2.20527">
        <ele>31.2</ele>
        <time>2012-09-02T07:57:40Z</time>
      </trkpt>
      <trkpt lat="49.93982" lon="2.20505">
        <ele>31.2</ele>
        <time>2012-09-02T07:57:52Z</time>
      </trkpt>
      <trkpt lat="49.93985" lon="2.20484">
        <ele>31.2</ele>
        <time>2012-09-02T07:58:04Z</time>
      </trkpt>
      <trkpt lat="49.93989" lon="2.20464">
        <ele>31.2</ele>
        <time>2012-09-02T07:58:14Z</time>
      </trkpt>
      <trkpt lat="49.93994" lon="2.20444">
        <ele>31.2</ele>
        <time>2012-09-02T07:58:24Z</time>
      </trkpt>
      <trkpt lat="49.94" lon="2.20424">
        <ele>31.2</ele>
        <time>2012-09-02T07:58:34Z</time>
      </trkpt>
      <trkpt lat="49.94003" lon="2.20403">
        <ele>31.2</ele>
        <time>2012-09-02T07:58:44Z</time>
      </trkpt>
      <trkpt lat="49.94007" lon="2.20383">
        <ele>31.2</ele>
        <time>2012-09-02T07:58:55Z</time>
      </trkpt>
      <trkpt lat="49.94012" lon="2.20363">
        <ele>31.2</ele>
        <time>2012-09-02T07:59:05Z</time>
      </trkpt>
      <trkpt lat="49.94016" lon="2.20343">
        <ele>31.2</ele>
        <time>2012-09-02T07:59:14Z</time>
      </trkpt>
      <trkpt lat="49.94019" lon="2.20321">
        <ele>31.2</ele>
        <time>2012-09-02T07:59:26Z</time>
      </trkpt>
      <trkpt lat="49.94025" lon="2.203">
        <ele>21</ele>
        <time>2012-09-02T07:59:37Z</time>
      </trkpt>
      <trkpt lat="49.9403" lon="2.2028">
        <ele>21</ele>
        <time>2012-09-02T07:59:47Z</time>
      </trkpt>
      <trkpt lat="49.94034" lon="2.20259">
        <ele>21</ele>
        <time>2012-09-02T07:59:56Z</time>
      </trkpt>
      <trkpt lat="49.94039" lon="2.20238">
        <ele>21</ele>
        <time>2012-09-02T08:00:06Z</time>
      </trkpt>
      <trkpt lat="49.94045" lon="2.20217">
        <ele>21</ele>
        <time>2012-09-02T08:00:17Z</time>
      </trkpt>
      <trkpt lat="49.9405" lon="2.20196">
        <ele>21</ele>
        <time>2012-09-02T08:00:29Z</time>
      </trkpt>
      <trkpt lat="49.94056" lon="2.20174">
        <ele>21</ele>
        <time>2012-09-02T08:00:40Z</time>
      </trkpt>
      <trkpt lat="49.94063" lon="2.20156">
        <ele>21</ele>
        <time>2012-09-02T08:00:49Z</time>
      </trkpt>
      <trkpt lat="49.94069" lon="2.20136">
        <ele>21</ele>
        <time>2012-09-02T08:01:00Z</time>
      </trkpt>
      <trkpt lat="49.94076" lon="2.20116">
        <ele>21</ele>
        <time>2012-09-02T08:01:12Z</time>
      </trkpt>
      <trkpt lat="49.94082" lon="2.20096">
        <ele>21</ele>
        <time>2012-09-02T08:01:21Z</time>
      </trkpt>
      <trkpt lat="49.94089" lon="2.20075">
        <ele>21</ele>
        <time>2012-09-02T08:01:33Z</time>
      </trkpt>
      <trkpt lat="49.94094" lon="2.20055">
        <ele>21</ele>
        <time>2012-09-02T08:01:44Z</time>
      </trkpt>
      <trkpt lat="49.94099" lon="2.20034">
        <ele>21</ele>
        <time>2012-09-02T08:01:54Z</time>
      </trkpt>
      <trkpt lat="49.94103" lon="2.20014">
        <ele>21</ele>
        <time>2012-09-02T08:02:04Z</time>
      </trkpt>
      <trkpt lat="49.94108" lon="2.19994">
        <ele>21</ele>
        <time>2012-09-02T08:02:14Z</time>
      </trkpt>
      <trkpt lat="49.94112" lon="2.19971">
        <ele>21</ele>
        <time>2012-09-02T08:02:26Z</time>
      </trkpt>
      <trkpt lat="49.9412" lon="2.19953">
        <ele>21</ele>
        <time>2012-09-02T08:02:36Z</time>
      </trkpt>
      <trkpt lat="49.94123" lon="2.1993">
        <ele>21</ele>
        <time>2012-09-02T08:02:47Z</time>
      </trkpt>
      <trkpt lat="49.94126" lon="2.19909">
        <ele>21</ele>
        <time>2012-09-02T08:02:58Z</time>
      </trkpt>
      <trkpt lat="49.9413" lon="2.19888">
        <ele>21</ele>
        <time>2012-09-02T08:03:09Z</time>
      </trkpt>
      <trkpt lat="49.94144" lon="2.19892">
        <ele>21</ele>
        <time>2012-09-02T08:03:19Z</time>
      </trkpt>
      <trkpt lat="49.94158" lon="2.19898">
        <ele>21</ele>
        <time>2012-09-02T08:03:30Z</time>
      </trkpt>
      <trkpt lat="49.9417" lon="2.19908">
        <ele>21</ele>
        <time>2012-09-02T08:03:41Z</time>
      </trkpt>
      <trkpt lat="49.94183" lon="2.19916">
        <ele>21</ele>
        <time>2012-09-02T08:03:52Z</time>
      </trkpt>
      <trkpt lat="49.94196" lon="2.19924">
        <ele>21</ele>
        <time>2012-09-02T08:04:02Z</time>
      </trkpt>
      <trkpt lat="49.94208" lon="2.19934">
        <ele>21</ele>
        <time>2012-09-02T08:04:13Z</time>
      </trkpt>
      <trkpt lat="49.94221" lon="2.19942">
        <ele>21</ele>
        <time>2012-09-02T08:04:24Z</time>
      </trkpt>
      <trkpt lat="49.94234" lon="2.19952">
        <ele>21</ele>
        <time>2012-09-02T08:04:34Z</time>
      </trkpt>
      <trkpt lat="49.94247" lon="2.19959">
        <ele>21</ele>
        <time>2012-09-02T08:04:45Z</time>
      </trkpt>
      <trkpt lat="49.9426" lon="2.19967">
        <ele>21</ele>
        <time>2012-09-02T08:04:55Z</time>
      </trkpt>
      <trkpt lat="49.94273" lon="2.19974">
        <ele>24.4</ele>
        <time>2012-09-02T08:05:06Z</time>
      </trkpt>
      <trkpt lat="49.94286" lon="2.19984">
        <ele>28.5</ele>
        <time>2012-09-02T08:05:17Z</time>
      </trkpt>
      <trkpt lat="49.943" lon="2.19993">
        <ele>32.2</ele>
        <time>2012-09-02T08:05:27Z</time>
      </trkpt>
      <trkpt lat="49.94313" lon="2.2">
        <ele>32.2</ele>
        <time>2012-09-02T08:05:37Z</time>
      </trkpt>
      <trkpt lat="49.94326" lon="2.20009">
        <ele>32.2</ele>
        <time>2012-09-02T08:05:48Z</time>
      </trkpt>
      <trkpt lat="49.94339" lon="2.20019">
        <ele>32.2</ele>
        <time>2012-09-02T08:05:59Z</time>
      </trkpt>
      <trkpt lat="49.94353" lon="2.20027">
        <ele>32.2</ele>
        <time>2012-09-02T08:06:10Z</time>
      </trkpt>
      <trkpt lat="49.94365" lon="2.20038">
        <ele>32.2</ele>
        <time>2012-09-02T08:06:21Z</time>
      </trkpt>
      <trkpt lat="49.94378" lon="2.20047">
        <ele>32.2</ele>
        <time>2012-09-02T08:06:31Z</time>
      </trkpt>
      <trkpt lat="49.94391" lon="2.20056">
        <ele>32.2</ele>
        <time>2012-09-02T08:06:42Z</time>
      </trkpt>
      <trkpt lat="49.94403" lon="2.20069">
        <ele>32.2</ele>
        <time>2012-09-02T08:06:53Z</time>
      </trkpt>
      <trkpt lat="49.94417" lon="2.20078">
        <ele>32.2</ele>
        <time>2012-09-02T08:07:04Z</time>
      </trkpt>
      <trkpt lat="49.94429" lon="2.20088">
        <ele>33.1</ele>
        <time>2012-09-02T08:07:15Z</time>
      </trkpt>
      <trkpt lat="49.94442" lon="2.20099">
        <ele>34.7</ele>
        <time>2012-09-02T08:07:26Z</time>
      </trkpt>
      <trkpt lat="49.94455" lon="2.2011">
        <ele>36.4</ele>
        <time>2012-09-02T08:07:38Z</time>
      </trkpt>
      <trkpt lat="49.94468" lon="2.20121">
        <ele>37.9</ele>
        <time>2012-09-02T08:07:48Z</time>
      </trkpt>
      <trkpt lat="49.94481" lon="2.2013">
        <ele>39.5</ele>
        <time>2012-09-02T08:07:59Z</time>
      </trkpt>
      <trkpt lat="49.94493" lon="2.20141">
        <ele>41.2</ele>
        <time>2012-09-02T08:08:11Z</time>
      </trkpt>
      <trkpt lat="49.94507" lon="2.2015">
        <ele>42.8</ele>
        <time>2012-09-02T08:08:22Z</time>
      </trkpt>
      <trkpt lat="49.9452" lon="2.2016">
        <ele>43.8</ele>
        <time>2012-09-02T08:08:33Z</time>
      </trkpt>
      <trkpt lat="49.94534" lon="2.20168">
        <ele>43.8</ele>
        <time>2012-09-02T08:08:44Z</time>
      </trkpt>
      <trkpt lat="49.94546" lon="2.20177">
        <ele>43.8</ele>
        <time>2012-09-02T08:08:53Z</time>
      </trkpt>
      <trkpt lat="49.94561" lon="2.20173">
        <ele>43.8</ele>
        <time>2012-09-02T08:09:05Z</time>
      </trkpt>
      <trkpt lat="49.94566" lon="2.20152">
        <ele>43.8</ele>
        <time>2012-09-02T08:09:16Z</time>
      </trkpt>
      <trkpt lat="49.94572" lon="2.20133">
        <ele>43.8</ele>
        <time>2012-09-02T08:09:27Z</time>
      </trkpt>
      <trkpt lat="49.94579" lon="2.20115">
        <ele>43.8</ele>
        <time>2012-09-02T08:09:38Z</time>
      </trkpt>
      <trkpt lat="49.94587" lon="2.20096">
        <ele>43.8</ele>
        <time>2012-09-02T08:09:48Z</time>
      </trkpt>
      <trkpt lat="49.94594" lon="2.20075">
        <ele>43.8</ele>
        <time>2012-09-02T08:10:00Z</time>
      </trkpt>
      <trkpt lat="49.94601" lon="2.20056">
        <ele>43.8</ele>
        <time>2012-09-02T08:10:10Z</time>
      </trkpt>
      <trkpt lat="49.94608" lon="2.20037">
        <ele>43.8</ele>
        <time>2012-09-02T08:10:21Z</time>
      </trkpt>
      <trkpt lat="49.94615" lon="2.20019">
        <ele>43.8</ele>
        <time>2012-09-02T08:10:32Z</time>
      </trkpt>
      <trkpt lat="49.94622" lon="2.19999">
        <ele>43.8</ele>
        <time>2012-09-02T08:10:43Z</time>
      </trkpt>
      <trkpt lat="49.94632" lon="2.19981">
        <ele>43.8</ele>
        <time>2012-09-02T08:10:55Z</time>
      </trkpt>
      <trkpt lat="49.9464" lon="2.19964">
        <ele>43.8</ele>
        <time>2012-09-02T08:11:05Z</time>
      </trkpt>
      <trkpt lat="49.94648" lon="2.19946">
        <ele>43.8</ele>
        <time>2012-09-02T08:11:16Z</time>
      </trkpt>
      <trkpt lat="49.94656" lon="2.19929">
        <ele>43.8</ele>
        <time>2012-09-02T08:11:26Z</time>
      </trkpt>
      <trkpt lat="49.94664" lon="2.19911">
        <ele>43.8</ele>
        <time>2012-09-02T08:11:36Z</time>
      </trkpt>
      <trkpt lat="49.94674" lon="2.19895">
        <ele>43.8</ele>
        <time>2012-09-02T08:11:47Z</time>
      </trkpt>
      <trkpt lat="49.94682" lon="2.19878">
        <ele>43.8</ele>
        <time>2012-09-02T08:11:57Z</time>
      </trkpt>
      <trkpt lat="49.94692" lon="2.19862">
        <ele>43.8</ele>
        <time>2012-09-02T08:12:08Z</time>
      </trkpt>
      <trkpt lat="49.94702" lon="2.19847">
        <ele>44.2</ele>
        <time>2012-09-02T08:12:18Z</time>
      </trkpt>
      <trkpt lat="49.94712" lon="2.19831">
        <ele>45.6</ele>
        <time>2012-09-02T08:12:29Z</time>
      </trkpt>
      <trkpt lat="49.94722" lon="2.19816">
        <ele>46.8</ele>
        <time>2012-09-02T08:12:39Z</time>
      </trkpt>
      <trkpt lat="49.94732" lon="2.198">
        <ele>48.2</ele>
        <time>2012-09-02T08:12:50Z</time>
      </trkpt>
      <trkpt lat="49.94742" lon="2.19782">
        <ele>49.7</ele>
        <time>2012-09-02T08:13:02Z</time>
      </trkpt>
      <trkpt lat="49.94751" lon="2.19766">
        <ele>50.9</ele>
        <time>2012-09-02T08:13:12Z</time>
      </trkpt>
      <trkpt lat="49.9476" lon="2.1975">
        <ele>52.2</ele>
        <time>2012-09-02T08:13:22Z</time>
      </trkpt>
      <trkpt lat="49.94768" lon="2.19733">
        <ele>53.4</ele>
        <time>2012-09-02T08:13:32Z</time>
      </trkpt>
      <trkpt lat="49.94778" lon="2.19716">
        <ele>54.7</ele>
        <time>2012-09-02T08:13:42Z</time>
      </trkpt>
      <trkpt lat="49.94787" lon="2.19699">
        <ele>55.6</ele>
        <time>2012-09-02T08:13:52Z</time>
      </trkpt>
      <trkpt lat="49.94796" lon="2.19683">
        <ele>55.6</ele>
        <time>2012-09-02T08:14:02Z</time>
      </trkpt>
      <trkpt lat="49.94805" lon="2.19665">
        <ele>55.6</ele>
        <time>2012-09-02T08:14:13Z</time>
      </trkpt>
      <trkpt lat="49.94816" lon="2.19648">
        <ele>55.6</ele>
        <time>2012-09-02T08:14:25Z</time>
      </trkpt>
      <trkpt lat="49.94826" lon="2.19631">
        <ele>55.6</ele>
        <time>2012-09-02T08:14:35Z</time>
      </trkpt>
      <trkpt lat="49.94835" lon="2.19616">
        <ele>55.6</ele>
        <time>2012-09-02T08:14:45Z</time>
      </trkpt>
      <trkpt lat="49.94846" lon="2.19601">
        <ele>55.6</ele>
        <time>2012-09-02T08:14:56Z</time>
      </trkpt>
      <trkpt lat="49.94857" lon="2.19586">
        <ele>55.6</ele>
        <time>2012-09-02T08:15:05Z</time>
      </trkpt>
      <trkpt lat="49.94867" lon="2.19571">
        <ele>55.6</ele>
        <time>2012-09-02T08:15:17Z</time>
      </trkpt>
      <trkpt lat="49.94877" lon="2.19556">
        <ele>55.6</ele>
        <time>2012-09-02T08:15:27Z</time>
      </trkpt>
      <trkpt lat="49.94888" lon="2.1954">
        <ele>55.6</ele>
        <time>2012-09-02T08:15:38Z</time>
      </trkpt>
      <trkpt lat="49.94898" lon="2.19523">
        <ele>55.6</ele>
        <time>2012-09-02T08:15:48Z</time>
      </trkpt>
      <trkpt lat="49.94907" lon="2.19506">
        <ele>55.6</ele>
        <time>2012-09-02T08:15:59Z</time>
      </trkpt>
      <trkpt lat="49.94915" lon="2.19487">
        <ele>55.6</ele>
        <time>2012-09-02T08:16:10Z</time>
      </trkpt>
      <trkpt lat="49.94922" lon="2.19467">
        <ele>55.6</ele>
        <time>2012-09-02T08:16:21Z</time>
      </trkpt>
      <trkpt lat="49.9493" lon="2.19449">
        <ele>55.6</ele>
        <time>2012-09-02T08:16:32Z</time>
      </trkpt>
      <trkpt lat="49.94936" lon="2.19428">
        <ele>55.6</ele>
        <time>2012-09-02T08:16:43Z</time>
      </trkpt>
      <trkpt lat="49.94942" lon="2.19409">
        <ele>55.6</ele>
        <time>2012-09-02T08:16:55Z</time>
      </trkpt>
      <trkpt lat="49.94949" lon="2.1939">
        <ele>55.6</ele>
        <time>2012-09-02T08:17:05Z</time>
      </trkpt>
      <trkpt lat="49.94955" lon="2.1937">
        <ele>55.6</ele>
        <time>2012-09-02T08:17:16Z</time>
      </trkpt>
      <trkpt lat="49.94962" lon="2.1935">
        <ele>55.6</ele>
        <time>2012-09-02T08:17:27Z</time>
      </trkpt>
      <trkpt lat="49.94969" lon="2.19331">
        <ele>55.6</ele>
        <time>2012-09-02T08:17:37Z</time>
      </trkpt>
      <trkpt lat="49.94975" lon="2.19312">
        <ele>55.6</ele>
        <time>2012-09-02T08:17:48Z</time>
      </trkpt>
      <trkpt lat="49.94982" lon="2.19291">
        <ele>55.6</ele>
        <time>2012-09-02T08:17:59Z</time>
      </trkpt>
      <trkpt lat="49.9499" lon="2.19274">
        <ele>55.6</ele>
        <time>2012-09-02T08:18:09Z</time>
      </trkpt>
      <trkpt lat="49.94997" lon="2.19253">
        <ele>55.6</ele>
        <time>2012-09-02T08:18:21Z</time>
      </trkpt>
      <trkpt lat="49.95004" lon="2.19234">
        <ele>55.6</ele>
        <time>2012-09-02T08:18:32Z</time>
      </trkpt>
      <trkpt lat="49.95012" lon="2.19216">
        <ele>55.6</ele>
        <time>2012-09-02T08:18:41Z</time>
      </trkpt>
      <trkpt lat="49.95019" lon="2.19198">
        <ele>55.6</ele>
        <time>2012-09-02T08:18:51Z</time>
      </trkpt>
      <trkpt lat="49.95027" lon="2.19178">
        <ele>55.6</ele>
        <time>2012-09-02T08:19:03Z</time>
      </trkpt>
      <trkpt lat="49.95034" lon="2.19159">
        <ele>55.6</ele>
        <time>2012-09-02T08:19:14Z</time>
      </trkpt>
      <trkpt lat="49.95041" lon="2.19139">
        <ele>55.6</ele>
        <time>2012-09-02T08:19:24Z</time>
      </trkpt>
      <trkpt lat="49.95049" lon="2.19121">
        <ele>55.6</ele>
        <time>2012-09-02T08:19:35Z</time>
      </trkpt>
      <trkpt lat="49.95058" lon="2.19101">
        <ele>55.6</ele>
        <time>2012-09-02T08:19:47Z</time>
      </trkpt>
      <trkpt lat="49.95064" lon="2.1908">
        <ele>55.6</ele>
        <time>2012-09-02T08:19:57Z</time>
      </trkpt>
      <trkpt lat="49.95072" lon="2.19063">
        <ele>55.6</ele>
        <time>2012-09-02T08:20:08Z</time>
      </trkpt>
      <trkpt lat="49.95079" lon="2.19045">
        <ele>55.6</ele>
        <time>2012-09-02T08:20:19Z</time>
      </trkpt>
      <trkpt lat="49.95086" lon="2.19025">
        <ele>55.6</ele>
        <time>2012-09-02T08:20:29Z</time>
      </trkpt>
      <trkpt lat="49.95093" lon="2.19006">
        <ele>55.6</ele>
        <time>2012-09-02T08:20:39Z</time>
      </trkpt>
      <trkpt lat="49.95101" lon="2.18987">
        <ele>55.6</ele>
        <time>2012-09-02T08:20:51Z</time>
      </trkpt>
      <trkpt lat="49.95107" lon="2.18968">
        <ele>55.6</ele>
        <time>2012-09-02T08:21:01Z</time>
      </trkpt>
      <trkpt lat="49.95111" lon="2.18947">
        <ele>55.6</ele>
        <time>2012-09-02T08:21:11Z</time>
      </trkpt>
      <trkpt lat="49.95118" lon="2.18927">
        <ele>55.9</ele>
        <time>2012-09-02T08:21:22Z</time>
      </trkpt>
      <trkpt lat="49.95124" lon="2.18907">
        <ele>58.9</ele>
        <time>2012-09-02T08:21:33Z</time>
      </trkpt>
      <trkpt lat="49.95134" lon="2.18893">
        <ele>62.1</ele>
        <time>2012-09-02T08:21:44Z</time>
      </trkpt>
      <trkpt lat="49.95158" lon="2.18917">
        <ele>62.5</ele>
        <time>2012-09-02T08:22:14Z</time>
      </trkpt>
      <trkpt lat="49.95158" lon="2.18917">
        <ele>62.5</ele>
        <time>2012-09-02T08:25:19Z</time>
      </trkpt>
      <trkpt lat="49.9517" lon="2.1893">
        <ele>59.9</ele>
        <time>2012-09-02T08:25:22Z</time>
      </trkpt>
      <trkpt lat="49.95182" lon="2.18944">
        <ele>59.9</ele>
        <time>2012-09-02T08:25:35Z</time>
      </trkpt>
      <trkpt lat="49.95194" lon="2.18956">
        <ele>59.9</ele>
        <time>2012-09-02T08:25:47Z</time>
      </trkpt>
      <trkpt lat="49.95206" lon="2.18966">
        <ele>59.9</ele>
        <time>2012-09-02T08:25:58Z</time>
      </trkpt>
      <trkpt lat="49.95218" lon="2.18975">
        <ele>59.9</ele>
        <time>2012-09-02T08:26:09Z</time>
      </trkpt>
      <trkpt lat="49.95229" lon="2.18987">
        <ele>59.9</ele>
        <time>2012-09-02T08:26:20Z</time>
      </trkpt>
      <trkpt lat="49.95242" lon="2.18998">
        <ele>59.9</ele>
        <time>2012-09-02T08:26:32Z</time>
      </trkpt>
      <trkpt lat="49.95254" lon="2.1901">
        <ele>59.9</ele>
        <time>2012-09-02T08:26:44Z</time>
      </trkpt>
      <trkpt lat="49.95266" lon="2.19019">
        <ele>59.9</ele>
        <time>2012-09-02T08:26:55Z</time>
      </trkpt>
      <trkpt lat="49.95278" lon="2.1903">
        <ele>59.9</ele>
        <time>2012-09-02T08:27:07Z</time>
      </trkpt>
      <trkpt lat="49.9529" lon="2.19043">
        <ele>59.9</ele>
        <time>2012-09-02T08:27:20Z</time>
      </trkpt>
      <trkpt lat="49.95303" lon="2.19055">
        <ele>59.9</ele>
        <time>2012-09-02T08:27:32Z</time>
      </trkpt>
      <trkpt lat="49.95315" lon="2.19066">
        <ele>59.9</ele>
        <time>2012-09-02T08:27:43Z</time>
      </trkpt>
      <trkpt lat="49.95328" lon="2.19075">
        <ele>59.9</ele>
        <time>2012-09-02T08:27:55Z</time>
      </trkpt>
      <trkpt lat="49.95339" lon="2.19062">
        <ele>59.9</ele>
        <time>2012-09-02T08:28:06Z</time>
      </trkpt>
      <trkpt lat="49.95334" lon="2.19042">
        <ele>59.9</ele>
        <time>2012-09-02T08:28:19Z</time>
      </trkpt>
      <trkpt lat="49.95327" lon="2.19021">
        <ele>59.9</ele>
        <time>2012-09-02T08:28:31Z</time>
      </trkpt>
      <trkpt lat="49.9532" lon="2.19001">
        <ele>59.9</ele>
        <time>2012-09-02T08:28:45Z</time>
      </trkpt>
      <trkpt lat="49.95314" lon="2.18982">
        <ele>59.9</ele>
        <time>2012-09-02T08:28:57Z</time>
      </trkpt>
      <trkpt lat="49.95308" lon="2.18963">
        <ele>59.9</ele>
        <time>2012-09-02T08:29:07Z</time>
      </trkpt>
      <trkpt lat="49.95301" lon="2.18943">
        <ele>59.9</ele>
        <time>2012-09-02T08:29:20Z</time>
      </trkpt>
      <trkpt lat="49.95295" lon="2.18923">
        <ele>59.9</ele>
        <time>2012-09-02T08:29:30Z</time>
      </trkpt>
      <trkpt lat="49.95287" lon="2.18902">
        <ele>59.9</ele>
        <time>2012-09-02T08:29:43Z</time>
      </trkpt>
      <trkpt lat="49.95281" lon="2.18883">
        <ele>59.9</ele>
        <time>2012-09-02T08:29:54Z</time>
      </trkpt>
      <trkpt lat="49.95276" lon="2.18863">
        <ele>59.9</ele>
        <time>2012-09-02T08:30:05Z</time>
      </trkpt>
      <trkpt lat="49.95269" lon="2.18844">
        <ele>59.9</ele>
        <time>2012-09-02T08:30:15Z</time>
      </trkpt>
      <trkpt lat="49.95262" lon="2.18824">
        <ele>59.9</ele>
        <time>2012-09-02T08:30:26Z</time>
      </trkpt>
      <trkpt lat="49.95253" lon="2.18807">
        <ele>59.9</ele>
        <time>2012-09-02T08:30:37Z</time>
      </trkpt>
      <trkpt lat="49.95245" lon="2.18789">
        <ele>59.9</ele>
        <time>2012-09-02T08:30:48Z</time>
      </trkpt>
      <trkpt lat="49.95236" lon="2.18772">
        <ele>59.9</ele>
        <time>2012-09-02T08:30:59Z</time>
      </trkpt>
      <trkpt lat="49.95228" lon="2.18754">
        <ele>59.9</ele>
        <time>2012-09-02T08:31:10Z</time>
      </trkpt>
      <trkpt lat="49.95218" lon="2.18737">
        <ele>59.9</ele>
        <time>2012-09-02T08:31:21Z</time>
      </trkpt>
      <trkpt lat="49.95209" lon="2.1872">
        <ele>59.9</ele>
        <time>2012-09-02T08:31:32Z</time>
      </trkpt>
      <trkpt lat="49.952" lon="2.18703">
        <ele>59.9</ele>
        <time>2012-09-02T08:31:42Z</time>
      </trkpt>
      <trkpt lat="49.95192" lon="2.18685">
        <ele>59.9</ele>
        <time>2012-09-02T08:31:53Z</time>
      </trkpt>
      <trkpt lat="49.95184" lon="2.18665">
        <ele>59.9</ele>
        <time>2012-09-02T08:32:05Z</time>
      </trkpt>
      <trkpt lat="49.95177" lon="2.18645">
        <ele>59.9</ele>
        <time>2012-09-02T08:32:16Z</time>
      </trkpt>
      <trkpt lat="49.95172" lon="2.18625">
        <ele>59.9</ele>
        <time>2012-09-02T08:32:27Z</time>
      </trkpt>
      <trkpt lat="49.95166" lon="2.18604">
        <ele>59.9</ele>
        <time>2012-09-02T08:32:38Z</time>
      </trkpt>
      <trkpt lat="49.95159" lon="2.18584">
        <ele>59.9</ele>
        <time>2012-09-02T08:32:48Z</time>
      </trkpt>
      <trkpt lat="49.95153" lon="2.18565">
        <ele>59.9</ele>
        <time>2012-09-02T08:33:00Z</time>
      </trkpt>
      <trkpt lat="49.95148" lon="2.18545">
        <ele>59.9</ele>
        <time>2012-09-02T08:33:11Z</time>
      </trkpt>
      <trkpt lat="49.95142" lon="2.18525">
        <ele>59.9</ele>
        <time>2012-09-02T08:33:22Z</time>
      </trkpt>
      <trkpt lat="49.95137" lon="2.18505">
        <ele>59.9</ele>
        <time>2012-09-02T08:33:34Z</time>
      </trkpt>
      <trkpt lat="49.95132" lon="2.18483">
        <ele>59.9</ele>
        <time>2012-09-02T08:33:45Z</time>
      </trkpt>
      <trkpt lat="49.95125" lon="2.18462">
        <ele>59.9</ele>
        <time>2012-09-02T08:33:58Z</time>
      </trkpt>
      <trkpt lat="49.95119" lon="2.18443">
        <ele>59.9</ele>
        <time>2012-09-02T08:34:08Z</time>
      </trkpt>
      <trkpt lat="49.95112" lon="2.18425">
        <ele>59.9</ele>
        <time>2012-09-02T08:34:18Z</time>
      </trkpt>
      <trkpt lat="49.95104" lon="2.18406">
        <ele>59.9</ele>
        <time>2012-09-02T08:34:29Z</time>
      </trkpt>
      <trkpt lat="49.95098" lon="2.18387">
        <ele>59.9</ele>
        <time>2012-09-02T08:34:40Z</time>
      </trkpt>
      <trkpt lat="49.95093" lon="2.18367">
        <ele>59.9</ele>
        <time>2012-09-02T08:34:51Z</time>
      </trkpt>
      <trkpt lat="49.95085" lon="2.18347">
        <ele>59.9</ele>
        <time>2012-09-02T08:35:01Z</time>
      </trkpt>
      <trkpt lat="49.9508" lon="2.18328">
        <ele>59.9</ele>
        <time>2012-09-02T08:35:11Z</time>
      </trkpt>
      <trkpt lat="49.95072" lon="2.18309">
        <ele>59.9</ele>
        <time>2012-09-02T08:35:22Z</time>
      </trkpt>
      <trkpt lat="49.95065" lon="2.1829">
        <ele>59.9</ele>
        <time>2012-09-02T08:35:34Z</time>
      </trkpt>
      <trkpt lat="49.95057" lon="2.18272">
        <ele>59.9</ele>
        <time>2012-09-02T08:35:44Z</time>
      </trkpt>
      <trkpt lat="49.95049" lon="2.18252">
        <ele>59.9</ele>
        <time>2012-09-02T08:35:56Z</time>
      </trkpt>
      <trkpt lat="49.95042" lon="2.18232">
        <ele>59.9</ele>
        <time>2012-09-02T08:36:08Z</time>
      </trkpt>
      <trkpt lat="49.95044" lon="2.18195">
        <ele>59.9</ele>
        <time>2012-09-02T08:36:22Z</time>
      </trkpt>
      <trkpt lat="49.95044" lon="2.18195">
        <ele>59.9</ele>
        <time>2012-09-02T08:37:15Z</time>
      </trkpt>
      <trkpt lat="49.95051" lon="2.18178">
        <ele>59.9</ele>
        <time>2012-09-02T08:37:21Z</time>
      </trkpt>
      <trkpt lat="49.95066" lon="2.18177">
        <ele>59.9</ele>
        <time>2012-09-02T08:37:47Z</time>
      </trkpt>
      <trkpt lat="49.9508" lon="2.18176">
        <ele>59.9</ele>
        <time>2012-09-02T08:37:57Z</time>
      </trkpt>
      <trkpt lat="49.95094" lon="2.18177">
        <ele>59.9</ele>
        <time>2012-09-02T08:38:08Z</time>
      </trkpt>
      <trkpt lat="49.95108" lon="2.18169">
        <ele>59.9</ele>
        <time>2012-09-02T08:38:18Z</time>
      </trkpt>
      <trkpt lat="49.95122" lon="2.18166">
        <ele>59.9</ele>
        <time>2012-09-02T08:38:29Z</time>
      </trkpt>
      <trkpt lat="49.95136" lon="2.18163">
        <ele>59.9</ele>
        <time>2012-09-02T08:38:40Z</time>
      </trkpt>
      <trkpt lat="49.95149" lon="2.18156">
        <ele>59.9</ele>
        <time>2012-09-02T08:38:50Z</time>
      </trkpt>
      <trkpt lat="49.95163" lon="2.18155">
        <ele>59.9</ele>
        <time>2012-09-02T08:39:06Z</time>
      </trkpt>
      <trkpt lat="49.95177" lon="2.18148">
        <ele>59.9</ele>
        <time>2012-09-02T08:39:16Z</time>
      </trkpt>
      <trkpt lat="49.9519" lon="2.1814">
        <ele>59.9</ele>
        <time>2012-09-02T08:39:27Z</time>
      </trkpt>
      <trkpt lat="49.95202" lon="2.18129">
        <ele>59.9</ele>
        <time>2012-09-02T08:39:38Z</time>
      </trkpt>
      <trkpt lat="49.95232" lon="2.18094">
        <ele>54.1</ele>
        <time>2012-09-02T08:39:59Z</time>
      </trkpt>
      <trkpt lat="49.95232" lon="2.18094">
        <ele>54.1</ele>
        <time>2012-09-02T08:43:45Z</time>
      </trkpt>
      <trkpt lat="49.95251" lon="2.18069">
        <ele>48.4</ele>
        <time>2012-09-02T08:43:49Z</time>
      </trkpt>
      <trkpt lat="49.9525" lon="2.18047">
        <ele>36</ele>
        <time>2012-09-02T08:44:01Z</time>
      </trkpt>
      <trkpt lat="49.95248" lon="2.18025">
        <ele>27.8</ele>
        <time>2012-09-02T08:44:12Z</time>
      </trkpt>
      <trkpt lat="49.95243" lon="2.17978">
        <ele>23.6</ele>
        <time>2012-09-02T08:44:33Z</time>
      </trkpt>
      <trkpt lat="49.95243" lon="2.17978">
        <ele>23.6</ele>
        <time>2012-09-02T08:45:56Z</time>
      </trkpt>
      <trkpt lat="49.95242" lon="2.17952">
        <ele>19.4</ele>
        <time>2012-09-02T08:45:57Z</time>
      </trkpt>
      <trkpt lat="49.95259" lon="2.17884">
        <ele>23.9</ele>
        <time>2012-09-02T08:46:16Z</time>
      </trkpt>
      <trkpt lat="49.95259" lon="2.17884">
        <ele>23.9</ele>
        <time>2012-09-02T08:51:38Z</time>
      </trkpt>
      <trkpt lat="49.95273" lon="2.17839">
        <ele>20.3</ele>
        <time>2012-09-02T08:51:44Z</time>
      </trkpt>
      <trkpt lat="49.95271" lon="2.17818">
        <ele>20.3</ele>
        <time>2012-09-02T08:52:01Z</time>
      </trkpt>
      <trkpt lat="49.95268" lon="2.17796">
        <ele>20.3</ele>
        <time>2012-09-02T08:52:14Z</time>
      </trkpt>
      <trkpt lat="49.95271" lon="2.17774">
        <ele>20.3</ele>
        <time>2012-09-02T08:52:25Z</time>
      </trkpt>
      <trkpt lat="49.95273" lon="2.17752">
        <ele>20.3</ele>
        <time>2012-09-02T08:52:42Z</time>
      </trkpt>
      <trkpt lat="49.95276" lon="2.17727">
        <ele>20.3</ele>
        <time>2012-09-02T08:52:54Z</time>
      </trkpt>
      <trkpt lat="49.95278" lon="2.17705">
        <ele>20.3</ele>
        <time>2012-09-02T08:53:06Z</time>
      </trkpt>
      <trkpt lat="49.95281" lon="2.17684">
        <ele>20.3</ele>
        <time>2012-09-02T08:53:17Z</time>
      </trkpt>
      <trkpt lat="49.95278" lon="2.17662">
        <ele>20.3</ele>
        <time>2012-09-02T08:53:29Z</time>
      </trkpt>
      <trkpt lat="49.95279" lon="2.17641">
        <ele>20.3</ele>
        <time>2012-09-02T08:53:42Z</time>
      </trkpt>
      <trkpt lat="49.95274" lon="2.17621">
        <ele>20.3</ele>
        <time>2012-09-02T08:53:51Z</time>
      </trkpt>
      <trkpt lat="49.95271" lon="2.17597">
        <ele>20.3</ele>
        <time>2012-09-02T08:54:05Z</time>
      </trkpt>
      <trkpt lat="49.95266" lon="2.17575">
        <ele>20.3</ele>
        <time>2012-09-02T08:54:19Z</time>
      </trkpt>
      <trkpt lat="49.95256" lon="2.1756">
        <ele>20.3</ele>
        <time>2012-09-02T08:54:30Z</time>
      </trkpt>
      <trkpt lat="49.95239" lon="2.17555">
        <ele>17.8</ele>
        <time>2012-09-02T08:54:41Z</time>
      </trkpt>
      <trkpt lat="49.95227" lon="2.17563">
        <ele>11</ele>
        <time>2012-09-02T08:54:55Z</time>
      </trkpt>
      <trkpt lat="49.95214" lon="2.17571">
        <ele>9</ele>
        <time>2012-09-02T08:55:07Z</time>
      </trkpt>
      <trkpt lat="49.95199" lon="2.17575">
        <ele>9</ele>
        <time>2012-09-02T08:55:18Z</time>
      </trkpt>
      <trkpt lat="49.95186" lon="2.17572">
        <ele>9</ele>
        <time>2012-09-02T08:55:29Z</time>
      </trkpt>
      <trkpt lat="49.95173" lon="2.17565">
        <ele>9</ele>
        <time>2012-09-02T08:55:38Z</time>
      </trkpt>
      <trkpt lat="49.95158" lon="2.17562">
        <ele>9</ele>
        <time>2012-09-02T08:55:49Z</time>
      </trkpt>
      <trkpt lat="49.95143" lon="2.17553">
        <ele>9</ele>
        <time>2012-09-02T08:56:00Z</time>
      </trkpt>
      <trkpt lat="49.9513" lon="2.17541">
        <ele>9</ele>
        <time>2012-09-02T08:56:14Z</time>
      </trkpt>
      <trkpt lat="49.95118" lon="2.17529">
        <ele>9</ele>
        <time>2012-09-02T08:56:26Z</time>
      </trkpt>
      <trkpt lat="49.95105" lon="2.17518">
        <ele>9</ele>
        <time>2012-09-02T08:56:39Z</time>
      </trkpt>
      <trkpt lat="49.95093" lon="2.17506">
        <ele>9</ele>
        <time>2012-09-02T08:56:50Z</time>
      </trkpt>
      <trkpt lat="49.95081" lon="2.1749">
        <ele>9</ele>
        <time>2012-09-02T08:57:03Z</time>
      </trkpt>
      <trkpt lat="49.95071" lon="2.17475">
        <ele>9</ele>
        <time>2012-09-02T08:57:16Z</time>
      </trkpt>
      <trkpt lat="49.95064" lon="2.17456">
        <ele>9</ele>
        <time>2012-09-02T08:57:25Z</time>
      </trkpt>
      <trkpt lat="49.95054" lon="2.17441">
        <ele>9</ele>
        <time>2012-09-02T08:57:45Z</time>
      </trkpt>
      <trkpt lat="49.95053" lon="2.17419">
        <ele>17</ele>
        <time>2012-09-02T08:58:08Z</time>
      </trkpt>
      <trkpt lat="49.95047" lon="2.17398">
        <ele>19.2</ele>
        <time>2012-09-02T08:58:21Z</time>
      </trkpt>
      <trkpt lat="49.95035" lon="2.17382">
        <ele>19.2</ele>
        <time>2012-09-02T08:58:34Z</time>
      </trkpt>
      <trkpt lat="49.95024" lon="2.17368">
        <ele>19.2</ele>
        <time>2012-09-02T08:58:47Z</time>
      </trkpt>
      <trkpt lat="49.95013" lon="2.17352">
        <ele>19.2</ele>
        <time>2012-09-02T08:58:57Z</time>
      </trkpt>
      <trkpt lat="49.95001" lon="2.17339">
        <ele>19.2</ele>
        <time>2012-09-02T08:59:07Z</time>
      </trkpt>
      <trkpt lat="49.94989" lon="2.17329">
        <ele>19.2</ele>
        <time>2012-09-02T08:59:14Z</time>
      </trkpt>
      <trkpt lat="49.94977" lon="2.17316">
        <ele>19.2</ele>
        <time>2012-09-02T08:59:27Z</time>
      </trkpt>
      <trkpt lat="49.94966" lon="2.17301">
        <ele>19.2</ele>
        <time>2012-09-02T08:59:37Z</time>
      </trkpt>
      <trkpt lat="49.94956" lon="2.17282">
        <ele>19.2</ele>
        <time>2012-09-02T08:59:49Z</time>
      </trkpt>
      <trkpt lat="49.94947" lon="2.17265">
        <ele>19.2</ele>
        <time>2012-09-02T09:00:03Z</time>
      </trkpt>
      <trkpt lat="49.94938" lon="2.17249">
        <ele>19.2</ele>
        <time>2012-09-02T09:00:14Z</time>
      </trkpt>
      <trkpt lat="49.94927" lon="2.17235">
        <ele>19.2</ele>
        <time>2012-09-02T09:00:28Z</time>
      </trkpt>
      <trkpt lat="49.94915" lon="2.17223">
        <ele>19.2</ele>
        <time>2012-09-02T09:00:41Z</time>
      </trkpt>
      <trkpt lat="49.94912" lon="2.17223">
        <ele>19.2</ele>
        <time>2012-09-02T09:00:49Z</time>
      </trkpt>
      <trkpt lat="49.94912" lon="2.17202">
        <ele>19.2</ele>
        <time>2012-09-02T09:01:02Z</time>
      </trkpt>
      <trkpt lat="49.94916" lon="2.17181">
        <ele>19.2</ele>
        <time>2012-09-02T09:01:14Z</time>
      </trkpt>
      <trkpt lat="49.94922" lon="2.17162">
        <ele>19.2</ele>
        <time>2012-09-02T09:01:26Z</time>
      </trkpt>
      <trkpt lat="49.94929" lon="2.17141">
        <ele>19.2</ele>
        <time>2012-09-02T09:01:39Z</time>
      </trkpt>
      <trkpt lat="49.94935" lon="2.17121">
        <ele>19.2</ele>
        <time>2012-09-02T09:01:49Z</time>
      </trkpt>
      <trkpt lat="49.94935" lon="2.171">
        <ele>19.2</ele>
        <time>2012-09-02T09:02:08Z</time>
      </trkpt>
      <trkpt lat="49.94931" lon="2.17079">
        <ele>16.5</ele>
        <time>2012-09-02T09:02:21Z</time>
      </trkpt>
      <trkpt lat="49.94929" lon="2.17058">
        <ele>13.9</ele>
        <time>2012-09-02T09:02:32Z</time>
      </trkpt>
      <trkpt lat="49.94928" lon="2.17037">
        <ele>10.7</ele>
        <time>2012-09-02T09:02:46Z</time>
      </trkpt>
      <trkpt lat="49.94933" lon="2.17015">
        <ele>7.9</ele>
        <time>2012-09-02T09:02:58Z</time>
      </trkpt>
      <trkpt lat="49.94934" lon="2.16993">
        <ele>7.9</ele>
        <time>2012-09-02T09:03:10Z</time>
      </trkpt>
      <trkpt lat="49.94932" lon="2.16969">
        <ele>7.9</ele>
        <time>2012-09-02T09:03:24Z</time>
      </trkpt>
      <trkpt lat="49.94916" lon="2.16958">
        <ele>11.8</ele>
        <time>2012-09-02T09:03:44Z</time>
      </trkpt>
      <trkpt lat="49.94916" lon="2.16958">
        <ele>11.8</ele>
        <time>2012-09-02T09:15:59Z</time>
      </trkpt>
      <trkpt lat="49.94909" lon="2.16965">
        <ele>15.7</ele>
        <time>2012-09-02T09:16:13Z</time>
      </trkpt>
      <trkpt lat="49.94917" lon="2.16986">
        <ele>15.8</ele>
        <time>2012-09-02T09:16:25Z</time>
      </trkpt>
      <trkpt lat="49.94929" lon="2.16998">
        <ele>20</ele>
        <time>2012-09-02T09:16:38Z</time>
      </trkpt>
      <trkpt lat="49.94927" lon="2.17018">
        <ele>20</ele>
        <time>2012-09-02T09:16:52Z</time>
      </trkpt>
      <trkpt lat="49.94924" lon="2.17043">
        <ele>20</ele>
        <time>2012-09-02T09:17:02Z</time>
      </trkpt>
      <trkpt lat="49.9492" lon="2.17063">
        <ele>20</ele>
        <time>2012-09-02T09:17:15Z</time>
      </trkpt>
      <trkpt lat="49.94926" lon="2.17084">
        <ele>20</ele>
        <time>2012-09-02T09:17:27Z</time>
      </trkpt>
      <trkpt lat="49.94932" lon="2.17103">
        <ele>20</ele>
        <time>2012-09-02T09:17:55Z</time>
      </trkpt>
      <trkpt lat="49.94928" lon="2.17123">
        <ele>20</ele>
        <time>2012-09-02T09:18:10Z</time>
      </trkpt>
      <trkpt lat="49.94922" lon="2.17142">
        <ele>20</ele>
        <time>2012-09-02T09:18:25Z</time>
      </trkpt>
      <trkpt lat="49.94917" lon="2.17163">
        <ele>8.4</ele>
        <time>2012-09-02T09:18:39Z</time>
      </trkpt>
      <trkpt lat="49.94911" lon="2.17183">
        <ele>8.4</ele>
        <time>2012-09-02T09:18:55Z</time>
      </trkpt>
      <trkpt lat="49.94905" lon="2.17226">
        <ele>14.7</ele>
        <time>2012-09-02T09:19:15Z</time>
      </trkpt>
      <trkpt lat="49.94905" lon="2.17226">
        <ele>14.7</ele>
        <time>2012-09-02T09:20:21Z</time>
      </trkpt>
      <trkpt lat="49.94901" lon="2.17246">
        <ele>19</ele>
        <time>2012-09-02T09:20:30Z</time>
      </trkpt>
      <trkpt lat="49.949" lon="2.17268">
        <ele>19</ele>
        <time>2012-09-02T09:20:45Z</time>
      </trkpt>
      <trkpt lat="49.94894" lon="2.17282">
        <ele>19</ele>
        <time>2012-09-02T09:21:02Z</time>
      </trkpt>
      <trkpt lat="49.94881" lon="2.17268">
        <ele>19</ele>
        <time>2012-09-02T09:21:11Z</time>
      </trkpt>
      <trkpt lat="49.94866" lon="2.17273">
        <ele>19</ele>
        <time>2012-09-02T09:21:21Z</time>
      </trkpt>
      <trkpt lat="49.94857" lon="2.1729">
        <ele>19</ele>
        <time>2012-09-02T09:21:31Z</time>
      </trkpt>
      <trkpt lat="49.9485" lon="2.17311">
        <ele>23</ele>
        <time>2012-09-02T09:21:44Z</time>
      </trkpt>
      <trkpt lat="49.94845" lon="2.17331">
        <ele>26.6</ele>
        <time>2012-09-02T09:21:55Z</time>
      </trkpt>
      <trkpt lat="49.94844" lon="2.17353">
        <ele>29.5</ele>
        <time>2012-09-02T09:22:07Z</time>
      </trkpt>
      <trkpt lat="49.9485" lon="2.17374">
        <ele>29.5</ele>
        <time>2012-09-02T09:22:19Z</time>
      </trkpt>
      <trkpt lat="49.94859" lon="2.17391">
        <ele>29.5</ele>
        <time>2012-09-02T09:22:32Z</time>
      </trkpt>
      <trkpt lat="49.9487" lon="2.17406">
        <ele>29.5</ele>
        <time>2012-09-02T09:22:45Z</time>
      </trkpt>
      <trkpt lat="49.94879" lon="2.17424">
        <ele>29.5</ele>
        <time>2012-09-02T09:22:56Z</time>
      </trkpt>
      <trkpt lat="49.94887" lon="2.17442">
        <ele>29.5</ele>
        <time>2012-09-02T09:23:07Z</time>
      </trkpt>
      <trkpt lat="49.94898" lon="2.17458">
        <ele>29.5</ele>
        <time>2012-09-02T09:23:18Z</time>
      </trkpt>
      <trkpt lat="49.94906" lon="2.17478">
        <ele>29.5</ele>
        <time>2012-09-02T09:23:30Z</time>
      </trkpt>
      <trkpt lat="49.94913" lon="2.17497">
        <ele>31.2</ele>
        <time>2012-09-02T09:23:41Z</time>
      </trkpt>
      <trkpt lat="49.9492" lon="2.17516">
        <ele>34.5</ele>
        <time>2012-09-02T09:23:51Z</time>
      </trkpt>
      <trkpt lat="49.94927" lon="2.17536">
        <ele>38.1</ele>
        <time>2012-09-02T09:24:02Z</time>
      </trkpt>
      <trkpt lat="49.94932" lon="2.17557">
        <ele>40</ele>
        <time>2012-09-02T09:24:12Z</time>
      </trkpt>
      <trkpt lat="49.94938" lon="2.17579">
        <ele>40</ele>
        <time>2012-09-02T09:24:25Z</time>
      </trkpt>
      <trkpt lat="49.94945" lon="2.17599">
        <ele>40</ele>
        <time>2012-09-02T09:24:35Z</time>
      </trkpt>
      <trkpt lat="49.94951" lon="2.17618">
        <ele>40</ele>
        <time>2012-09-02T09:24:45Z</time>
      </trkpt>
      <trkpt lat="49.94959" lon="2.17637">
        <ele>40</ele>
        <time>2012-09-02T09:24:55Z</time>
      </trkpt>
      <trkpt lat="49.94967" lon="2.17655">
        <ele>44.4</ele>
        <time>2012-09-02T09:25:06Z</time>
      </trkpt>
      <trkpt lat="49.94975" lon="2.17673">
        <ele>49.7</ele>
        <time>2012-09-02T09:25:17Z</time>
      </trkpt>
      <trkpt lat="49.94982" lon="2.17692">
        <ele>50.3</ele>
        <time>2012-09-02T09:25:27Z</time>
      </trkpt>
      <trkpt lat="49.9499" lon="2.17711">
        <ele>50.3</ele>
        <time>2012-09-02T09:25:40Z</time>
      </trkpt>
      <trkpt lat="49.94997" lon="2.1773">
        <ele>50.3</ele>
        <time>2012-09-02T09:25:51Z</time>
      </trkpt>
      <trkpt lat="49.95005" lon="2.17749">
        <ele>50.3</ele>
        <time>2012-09-02T09:26:01Z</time>
      </trkpt>
      <trkpt lat="49.9501" lon="2.1777">
        <ele>50.3</ele>
        <time>2012-09-02T09:26:12Z</time>
      </trkpt>
      <trkpt lat="49.95016" lon="2.1779">
        <ele>50.3</ele>
        <time>2012-09-02T09:26:21Z</time>
      </trkpt>
      <trkpt lat="49.95021" lon="2.1781">
        <ele>50.3</ele>
        <time>2012-09-02T09:26:30Z</time>
      </trkpt>
      <trkpt lat="49.95025" lon="2.17831">
        <ele>50.3</ele>
        <time>2012-09-02T09:26:42Z</time>
      </trkpt>
      <trkpt lat="49.9503" lon="2.17853">
        <ele>50.3</ele>
        <time>2012-09-02T09:26:52Z</time>
      </trkpt>
      <trkpt lat="49.95032" lon="2.17875">
        <ele>50.3</ele>
        <time>2012-09-02T09:27:04Z</time>
      </trkpt>
      <trkpt lat="49.95035" lon="2.17899">
        <ele>50.3</ele>
        <time>2012-09-02T09:27:14Z</time>
      </trkpt>
      <trkpt lat="49.95036" lon="2.17922">
        <ele>50.3</ele>
        <time>2012-09-02T09:27:25Z</time>
      </trkpt>
      <trkpt lat="49.95037" lon="2.17943">
        <ele>50.3</ele>
        <time>2012-09-02T09:27:34Z</time>
      </trkpt>
      <trkpt lat="49.95037" lon="2.17966">
        <ele>50.3</ele>
        <time>2012-09-02T09:27:46Z</time>
      </trkpt>
      <trkpt lat="49.95037" lon="2.17989">
        <ele>50.3</ele>
        <time>2012-09-02T09:27:57Z</time>
      </trkpt>
      <trkpt lat="49.95036" lon="2.18011">
        <ele>50.3</ele>
        <time>2012-09-02T09:28:07Z</time>
      </trkpt>
      <trkpt lat="49.95036" lon="2.18032">
        <ele>50.3</ele>
        <time>2012-09-02T09:28:17Z</time>
      </trkpt>
      <trkpt lat="49.95035" lon="2.18053">
        <ele>53.3</ele>
        <time>2012-09-02T09:28:28Z</time>
      </trkpt>
      <trkpt lat="49.95035" lon="2.18076">
        <ele>57.5</ele>
        <time>2012-09-02T09:28:38Z</time>
      </trkpt>
      <trkpt lat="49.95035" lon="2.18098">
        <ele>61.8</ele>
        <time>2012-09-02T09:28:48Z</time>
      </trkpt>
      <trkpt lat="49.95031" lon="2.18119">
        <ele>62.7</ele>
        <time>2012-09-02T09:28:59Z</time>
      </trkpt>
      <trkpt lat="49.95031" lon="2.18141">
        <ele>59.7</ele>
        <time>2012-09-02T09:29:09Z</time>
      </trkpt>
      <trkpt lat="49.95032" lon="2.18185">
        <ele>53</ele>
        <time>2012-09-02T09:29:31Z</time>
      </trkpt>
      <trkpt lat="49.95032" lon="2.18185">
        <ele>53</ele>
        <time>2012-09-02T09:32:35Z</time>
      </trkpt>
      <trkpt lat="49.95033" lon="2.18208">
        <ele>50.4</ele>
        <time>2012-09-02T09:32:41Z</time>
      </trkpt>
      <trkpt lat="49.95037" lon="2.18228">
        <ele>50.4</ele>
        <time>2012-09-02T09:32:53Z</time>
      </trkpt>
      <trkpt lat="49.95045" lon="2.18246">
        <ele>50.4</ele>
        <time>2012-09-02T09:33:05Z</time>
      </trkpt>
      <trkpt lat="49.95052" lon="2.18266">
        <ele>50.4</ele>
        <time>2012-09-02T09:33:17Z</time>
      </trkpt>
      <trkpt lat="49.9506" lon="2.18284">
        <ele>50.4</ele>
        <time>2012-09-02T09:33:28Z</time>
      </trkpt>
      <trkpt lat="49.95067" lon="2.18304">
        <ele>50.4</ele>
        <time>2012-09-02T09:33:39Z</time>
      </trkpt>
      <trkpt lat="49.95074" lon="2.18322">
        <ele>50.4</ele>
        <time>2012-09-02T09:33:49Z</time>
      </trkpt>
      <trkpt lat="49.9508" lon="2.18343">
        <ele>50.4</ele>
        <time>2012-09-02T09:34:00Z</time>
      </trkpt>
      <trkpt lat="49.95088" lon="2.18363">
        <ele>51.2</ele>
        <time>2012-09-02T09:34:13Z</time>
      </trkpt>
      <trkpt lat="49.95095" lon="2.18381">
        <ele>54.3</ele>
        <time>2012-09-02T09:34:24Z</time>
      </trkpt>
      <trkpt lat="49.951" lon="2.18401">
        <ele>57.4</ele>
        <time>2012-09-02T09:34:35Z</time>
      </trkpt>
      <trkpt lat="49.95108" lon="2.1842">
        <ele>60.2</ele>
        <time>2012-09-02T09:34:45Z</time>
      </trkpt>
      <trkpt lat="49.95114" lon="2.18439">
        <ele>61.1</ele>
        <time>2012-09-02T09:34:55Z</time>
      </trkpt>
      <trkpt lat="49.9512" lon="2.18458">
        <ele>61.1</ele>
        <time>2012-09-02T09:35:04Z</time>
      </trkpt>
      <trkpt lat="49.95125" lon="2.18478">
        <ele>61.1</ele>
        <time>2012-09-02T09:35:14Z</time>
      </trkpt>
      <trkpt lat="49.95131" lon="2.18497">
        <ele>61.1</ele>
        <time>2012-09-02T09:35:25Z</time>
      </trkpt>
      <trkpt lat="49.95138" lon="2.18517">
        <ele>61.1</ele>
        <time>2012-09-02T09:35:34Z</time>
      </trkpt>
      <trkpt lat="49.95144" lon="2.18537">
        <ele>61.1</ele>
        <time>2012-09-02T09:35:45Z</time>
      </trkpt>
      <trkpt lat="49.9515" lon="2.18557">
        <ele>61.1</ele>
        <time>2012-09-02T09:35:56Z</time>
      </trkpt>
      <trkpt lat="49.95155" lon="2.18579">
        <ele>61.1</ele>
        <time>2012-09-02T09:36:07Z</time>
      </trkpt>
      <trkpt lat="49.95161" lon="2.18598">
        <ele>61.1</ele>
        <time>2012-09-02T09:36:18Z</time>
      </trkpt>
      <trkpt lat="49.95167" lon="2.18619">
        <ele>61.1</ele>
        <time>2012-09-02T09:36:29Z</time>
      </trkpt>
      <trkpt lat="49.95174" lon="2.18638">
        <ele>61.1</ele>
        <time>2012-09-02T09:36:39Z</time>
      </trkpt>
      <trkpt lat="49.9518" lon="2.18658">
        <ele>61.1</ele>
        <time>2012-09-02T09:36:50Z</time>
      </trkpt>
      <trkpt lat="49.95187" lon="2.18677">
        <ele>61.1</ele>
        <time>2012-09-02T09:37:01Z</time>
      </trkpt>
      <trkpt lat="49.95194" lon="2.18695">
        <ele>61.1</ele>
        <time>2012-09-02T09:37:11Z</time>
      </trkpt>
      <trkpt lat="49.95202" lon="2.18713">
        <ele>61.1</ele>
        <time>2012-09-02T09:37:23Z</time>
      </trkpt>
      <trkpt lat="49.9521" lon="2.1873">
        <ele>61.1</ele>
        <time>2012-09-02T09:37:33Z</time>
      </trkpt>
      <trkpt lat="49.95221" lon="2.18743">
        <ele>61.1</ele>
        <time>2012-09-02T09:37:44Z</time>
      </trkpt>
      <trkpt lat="49.9523" lon="2.18761">
        <ele>61.1</ele>
        <time>2012-09-02T09:37:54Z</time>
      </trkpt>
      <trkpt lat="49.95237" lon="2.18779">
        <ele>61.1</ele>
        <time>2012-09-02T09:38:05Z</time>
      </trkpt>
      <trkpt lat="49.95245" lon="2.18797">
        <ele>61.1</ele>
        <time>2012-09-02T09:38:15Z</time>
      </trkpt>
      <trkpt lat="49.95254" lon="2.18814">
        <ele>61.1</ele>
        <time>2012-09-02T09:38:26Z</time>
      </trkpt>
      <trkpt lat="49.95261" lon="2.18831">
        <ele>61.1</ele>
        <time>2012-09-02T09:38:36Z</time>
      </trkpt>
      <trkpt lat="49.9527" lon="2.18849">
        <ele>61.1</ele>
        <time>2012-09-02T09:38:47Z</time>
      </trkpt>
      <trkpt lat="49.95277" lon="2.18868">
        <ele>61.1</ele>
        <time>2012-09-02T09:38:57Z</time>
      </trkpt>
      <trkpt lat="49.95283" lon="2.18888">
        <ele>61.1</ele>
        <time>2012-09-02T09:39:08Z</time>
      </trkpt>
      <trkpt lat="49.95289" lon="2.18908">
        <ele>61.1</ele>
        <time>2012-09-02T09:39:20Z</time>
      </trkpt>
      <trkpt lat="49.95297" lon="2.18929">
        <ele>61.1</ele>
        <time>2012-09-02T09:39:32Z</time>
      </trkpt>
      <trkpt lat="49.95302" lon="2.18948">
        <ele>61.1</ele>
        <time>2012-09-02T09:39:42Z</time>
      </trkpt>
      <trkpt lat="49.95308" lon="2.18969">
        <ele>61.1</ele>
        <time>2012-09-02T09:39:53Z</time>
      </trkpt>
      <trkpt lat="49.95314" lon="2.18989">
        <ele>61.1</ele>
        <time>2012-09-02T09:40:04Z</time>
      </trkpt>
      <trkpt lat="49.95321" lon="2.19009">
        <ele>61.1</ele>
        <time>2012-09-02T09:40:17Z</time>
      </trkpt>
      <trkpt lat="49.95327" lon="2.19029">
        <ele>61.1</ele>
        <time>2012-09-02T09:40:28Z</time>
      </trkpt>
      <trkpt lat="49.95334" lon="2.19048">
        <ele>61.1</ele>
        <time>2012-09-02T09:40:39Z</time>
      </trkpt>
      <trkpt lat="49.95341" lon="2.19068">
        <ele>61.1</ele>
        <time>2012-09-02T09:40:49Z</time>
      </trkpt>
      <trkpt lat="49.95346" lon="2.19087">
        <ele>61.1</ele>
        <time>2012-09-02T09:41:02Z</time>
      </trkpt>
      <trkpt lat="49.95333" lon="2.19079">
        <ele>61.1</ele>
        <time>2012-09-02T09:41:17Z</time>
      </trkpt>
      <trkpt lat="49.95321" lon="2.19068">
        <ele>61.1</ele>
        <time>2012-09-02T09:41:28Z</time>
      </trkpt>
      <trkpt lat="49.95309" lon="2.19057">
        <ele>61.1</ele>
        <time>2012-09-02T09:41:38Z</time>
      </trkpt>
      <trkpt lat="49.95296" lon="2.19045">
        <ele>61.1</ele>
        <time>2012-09-02T09:41:50Z</time>
      </trkpt>
      <trkpt lat="49.95284" lon="2.19034">
        <ele>61.1</ele>
        <time>2012-09-02T09:42:00Z</time>
      </trkpt>
      <trkpt lat="49.95272" lon="2.19021">
        <ele>61.1</ele>
        <time>2012-09-02T09:42:12Z</time>
      </trkpt>
      <trkpt lat="49.95259" lon="2.1901">
        <ele>61.1</ele>
        <time>2012-09-02T09:42:22Z</time>
      </trkpt>
      <trkpt lat="49.95247" lon="2.18997">
        <ele>61.1</ele>
        <time>2012-09-02T09:42:34Z</time>
      </trkpt>
      <trkpt lat="49.95235" lon="2.18986">
        <ele>61.1</ele>
        <time>2012-09-02T09:42:45Z</time>
      </trkpt>
      <trkpt lat="49.95223" lon="2.18976">
        <ele>61.1</ele>
        <time>2012-09-02T09:42:55Z</time>
      </trkpt>
      <trkpt lat="49.9521" lon="2.18964">
        <ele>61.1</ele>
        <time>2012-09-02T09:43:08Z</time>
      </trkpt>
      <trkpt lat="49.95198" lon="2.18953">
        <ele>61.1</ele>
        <time>2012-09-02T09:43:19Z</time>
      </trkpt>
      <trkpt lat="49.95186" lon="2.18941">
        <ele>61.1</ele>
        <time>2012-09-02T09:43:31Z</time>
      </trkpt>
      <trkpt lat="49.95174" lon="2.18929">
        <ele>61.1</ele>
        <time>2012-09-02T09:43:41Z</time>
      </trkpt>
      <trkpt lat="49.95163" lon="2.18917">
        <ele>61.1</ele>
        <time>2012-09-02T09:43:51Z</time>
      </trkpt>
      <trkpt lat="49.95151" lon="2.18904">
        <ele>61.1</ele>
        <time>2012-09-02T09:44:02Z</time>
      </trkpt>
      <trkpt lat="49.95139" lon="2.18894">
        <ele>61.1</ele>
        <time>2012-09-02T09:44:12Z</time>
      </trkpt>
      <trkpt lat="49.95125" lon="2.18899">
        <ele>61.1</ele>
        <time>2012-09-02T09:44:22Z</time>
      </trkpt>
      <trkpt lat="49.95118" lon="2.18919">
        <ele>61.1</ele>
        <time>2012-09-02T09:44:32Z</time>
      </trkpt>
      <trkpt lat="49.95113" lon="2.18939">
        <ele>61.1</ele>
        <time>2012-09-02T09:44:42Z</time>
      </trkpt>
      <trkpt lat="49.95106" lon="2.18959">
        <ele>61.1</ele>
        <time>2012-09-02T09:44:54Z</time>
      </trkpt>
      <trkpt lat="49.951" lon="2.18978">
        <ele>61.1</ele>
        <time>2012-09-02T09:45:06Z</time>
      </trkpt>
      <trkpt lat="49.95092" lon="2.18997">
        <ele>61.1</ele>
        <time>2012-09-02T09:45:16Z</time>
      </trkpt>
      <trkpt lat="49.95085" lon="2.19018">
        <ele>61.1</ele>
        <time>2012-09-02T09:45:28Z</time>
      </trkpt>
      <trkpt lat="49.95076" lon="2.19036">
        <ele>61.1</ele>
        <time>2012-09-02T09:45:40Z</time>
      </trkpt>
      <trkpt lat="49.9507" lon="2.19055">
        <ele>61.1</ele>
        <time>2012-09-02T09:45:49Z</time>
      </trkpt>
      <trkpt lat="49.95062" lon="2.19075">
        <ele>61.1</ele>
        <time>2012-09-02T09:46:00Z</time>
      </trkpt>
      <trkpt lat="49.95054" lon="2.19095">
        <ele>61.1</ele>
        <time>2012-09-02T09:46:12Z</time>
      </trkpt>
      <trkpt lat="49.95047" lon="2.19115">
        <ele>61.1</ele>
        <time>2012-09-02T09:46:22Z</time>
      </trkpt>
      <trkpt lat="49.9504" lon="2.19135">
        <ele>61</ele>
        <time>2012-09-02T09:46:32Z</time>
      </trkpt>
      <trkpt lat="49.95035" lon="2.19156">
        <ele>60.5</ele>
        <time>2012-09-02T09:46:44Z</time>
      </trkpt>
      <trkpt lat="49.95029" lon="2.19176">
        <ele>60</ele>
        <time>2012-09-02T09:46:54Z</time>
      </trkpt>
      <trkpt lat="49.9502" lon="2.19191">
        <ele>59.5</ele>
        <time>2012-09-02T09:47:05Z</time>
      </trkpt>
      <trkpt lat="49.95013" lon="2.1921">
        <ele>59.1</ele>
        <time>2012-09-02T09:47:15Z</time>
      </trkpt>
      <trkpt lat="49.95005" lon="2.19229">
        <ele>58.6</ele>
        <time>2012-09-02T09:47:26Z</time>
      </trkpt>
      <trkpt lat="49.94998" lon="2.19247">
        <ele>58.2</ele>
        <time>2012-09-02T09:47:36Z</time>
      </trkpt>
      <trkpt lat="49.94991" lon="2.19267">
        <ele>57.7</ele>
        <time>2012-09-02T09:47:47Z</time>
      </trkpt>
      <trkpt lat="49.94983" lon="2.19287">
        <ele>57.2</ele>
        <time>2012-09-02T09:47:58Z</time>
      </trkpt>
      <trkpt lat="49.94976" lon="2.19307">
        <ele>56.7</ele>
        <time>2012-09-02T09:48:09Z</time>
      </trkpt>
      <trkpt lat="49.9497" lon="2.19329">
        <ele>56.2</ele>
        <time>2012-09-02T09:48:20Z</time>
      </trkpt>
      <trkpt lat="49.94963" lon="2.19348">
        <ele>55.8</ele>
        <time>2012-09-02T09:48:31Z</time>
      </trkpt>
      <trkpt lat="49.94956" lon="2.19366">
        <ele>55.3</ele>
        <time>2012-09-02T09:48:41Z</time>
      </trkpt>
      <trkpt lat="49.94949" lon="2.19385">
        <ele>54.9</ele>
        <time>2012-09-02T09:48:51Z</time>
      </trkpt>
      <trkpt lat="49.94943" lon="2.19404">
        <ele>54.4</ele>
        <time>2012-09-02T09:49:02Z</time>
      </trkpt>
      <trkpt lat="49.94936" lon="2.19422">
        <ele>53.9</ele>
        <time>2012-09-02T09:49:12Z</time>
      </trkpt>
      <trkpt lat="49.94931" lon="2.19441">
        <ele>53.5</ele>
        <time>2012-09-02T09:49:22Z</time>
      </trkpt>
      <trkpt lat="49.94924" lon="2.19461">
        <ele>53.1</ele>
        <time>2012-09-02T09:49:32Z</time>
      </trkpt>
      <trkpt lat="49.94917" lon="2.1948">
        <ele>52.6</ele>
        <time>2012-09-02T09:49:42Z</time>
      </trkpt>
      <trkpt lat="49.94909" lon="2.19498">
        <ele>52.1</ele>
        <time>2012-09-02T09:49:53Z</time>
      </trkpt>
      <trkpt lat="49.94901" lon="2.19516">
        <ele>51.7</ele>
        <time>2012-09-02T09:50:03Z</time>
      </trkpt>
      <trkpt lat="49.94892" lon="2.19532">
        <ele>51.3</ele>
        <time>2012-09-02T09:50:13Z</time>
      </trkpt>
      <trkpt lat="49.94881" lon="2.19547">
        <ele>50.8</ele>
        <time>2012-09-02T09:50:24Z</time>
      </trkpt>
      <trkpt lat="49.94871" lon="2.19562">
        <ele>50.3</ele>
        <time>2012-09-02T09:50:34Z</time>
      </trkpt>
      <trkpt lat="49.9486" lon="2.19575">
        <ele>50.2</ele>
        <time>2012-09-02T09:50:44Z</time>
      </trkpt>
      <trkpt lat="49.9485" lon="2.19592">
        <ele>50.2</ele>
        <time>2012-09-02T09:50:55Z</time>
      </trkpt>
      <trkpt lat="49.94838" lon="2.19608">
        <ele>50.2</ele>
        <time>2012-09-02T09:51:07Z</time>
      </trkpt>
      <trkpt lat="49.94829" lon="2.19623">
        <ele>50.2</ele>
        <time>2012-09-02T09:51:17Z</time>
      </trkpt>
      <trkpt lat="49.94819" lon="2.19638">
        <ele>50.2</ele>
        <time>2012-09-02T09:51:27Z</time>
      </trkpt>
      <trkpt lat="49.94809" lon="2.19654">
        <ele>50.2</ele>
        <time>2012-09-02T09:51:37Z</time>
      </trkpt>
      <trkpt lat="49.94799" lon="2.1967">
        <ele>50.2</ele>
        <time>2012-09-02T09:51:47Z</time>
      </trkpt>
      <trkpt lat="49.9479" lon="2.19687">
        <ele>50.2</ele>
        <time>2012-09-02T09:51:58Z</time>
      </trkpt>
      <trkpt lat="49.94782" lon="2.19704">
        <ele>50.2</ele>
        <time>2012-09-02T09:52:07Z</time>
      </trkpt>
      <trkpt lat="49.94772" lon="2.19722">
        <ele>50.2</ele>
        <time>2012-09-02T09:52:18Z</time>
      </trkpt>
      <trkpt lat="49.94763" lon="2.19739">
        <ele>50.2</ele>
        <time>2012-09-02T09:52:29Z</time>
      </trkpt>
      <trkpt lat="49.94754" lon="2.19757">
        <ele>50.2</ele>
        <time>2012-09-02T09:52:40Z</time>
      </trkpt>
      <trkpt lat="49.94746" lon="2.19775">
        <ele>50.2</ele>
        <time>2012-09-02T09:52:50Z</time>
      </trkpt>
      <trkpt lat="49.94736" lon="2.1979">
        <ele>50.2</ele>
        <time>2012-09-02T09:53:01Z</time>
      </trkpt>
      <trkpt lat="49.94726" lon="2.19807">
        <ele>50.2</ele>
        <time>2012-09-02T09:53:11Z</time>
      </trkpt>
      <trkpt lat="49.94715" lon="2.19824">
        <ele>50.2</ele>
        <time>2012-09-02T09:53:22Z</time>
      </trkpt>
      <trkpt lat="49.94706" lon="2.1984">
        <ele>50.2</ele>
        <time>2012-09-02T09:53:32Z</time>
      </trkpt>
      <trkpt lat="49.94697" lon="2.19855">
        <ele>50.2</ele>
        <time>2012-09-02T09:53:42Z</time>
      </trkpt>
      <trkpt lat="49.94686" lon="2.19871">
        <ele>50.2</ele>
        <time>2012-09-02T09:53:52Z</time>
      </trkpt>
      <trkpt lat="49.94676" lon="2.19888">
        <ele>50.2</ele>
        <time>2012-09-02T09:54:03Z</time>
      </trkpt>
      <trkpt lat="49.94667" lon="2.19905">
        <ele>50.2</ele>
        <time>2012-09-02T09:54:13Z</time>
      </trkpt>
      <trkpt lat="49.94658" lon="2.19922">
        <ele>50.2</ele>
        <time>2012-09-02T09:54:23Z</time>
      </trkpt>
      <trkpt lat="49.94649" lon="2.19939">
        <ele>50.2</ele>
        <time>2012-09-02T09:54:34Z</time>
      </trkpt>
      <trkpt lat="49.94642" lon="2.19957">
        <ele>50.2</ele>
        <time>2012-09-02T09:54:44Z</time>
      </trkpt>
      <trkpt lat="49.94634" lon="2.19975">
        <ele>50.2</ele>
        <time>2012-09-02T09:54:54Z</time>
      </trkpt>
      <trkpt lat="49.94626" lon="2.19992">
        <ele>50.2</ele>
        <time>2012-09-02T09:55:04Z</time>
      </trkpt>
      <trkpt lat="49.94617" lon="2.20011">
        <ele>50.2</ele>
        <time>2012-09-02T09:55:15Z</time>
      </trkpt>
      <trkpt lat="49.9461" lon="2.2003">
        <ele>50.2</ele>
        <time>2012-09-02T09:55:25Z</time>
      </trkpt>
      <trkpt lat="49.94602" lon="2.2005">
        <ele>49.8</ele>
        <time>2012-09-02T09:55:36Z</time>
      </trkpt>
      <trkpt lat="49.94595" lon="2.2007">
        <ele>48.6</ele>
        <time>2012-09-02T09:55:47Z</time>
      </trkpt>
      <trkpt lat="49.94589" lon="2.20089">
        <ele>47.5</ele>
        <time>2012-09-02T09:55:57Z</time>
      </trkpt>
      <trkpt lat="49.94582" lon="2.20107">
        <ele>46.6</ele>
        <time>2012-09-02T09:56:06Z</time>
      </trkpt>
      <trkpt lat="49.94576" lon="2.20126">
        <ele>45.5</ele>
        <time>2012-09-02T09:56:16Z</time>
      </trkpt>
      <trkpt lat="49.94568" lon="2.20145">
        <ele>44.3</ele>
        <time>2012-09-02T09:56:27Z</time>
      </trkpt>
      <trkpt lat="49.94562" lon="2.20164">
        <ele>43.2</ele>
        <time>2012-09-02T09:56:37Z</time>
      </trkpt>
      <trkpt lat="49.94555" lon="2.20184">
        <ele>42.2</ele>
        <time>2012-09-02T09:56:47Z</time>
      </trkpt>
      <trkpt lat="49.94548" lon="2.20203">
        <ele>41.1</ele>
        <time>2012-09-02T09:56:57Z</time>
      </trkpt>
      <trkpt lat="49.94539" lon="2.2022">
        <ele>40</ele>
        <time>2012-09-02T09:57:07Z</time>
      </trkpt>
      <trkpt lat="49.94528" lon="2.20235">
        <ele>38.8</ele>
        <time>2012-09-02T09:57:18Z</time>
      </trkpt>
      <trkpt lat="49.94517" lon="2.20248">
        <ele>37.8</ele>
        <time>2012-09-02T09:57:28Z</time>
      </trkpt>
      <trkpt lat="49.94504" lon="2.20259">
        <ele>37.4</ele>
        <time>2012-09-02T09:57:38Z</time>
      </trkpt>
      <trkpt lat="49.94494" lon="2.20273">
        <ele>37.4</ele>
        <time>2012-09-02T09:57:48Z</time>
      </trkpt>
      <trkpt lat="49.94482" lon="2.20283">
        <ele>37.4</ele>
        <time>2012-09-02T09:57:58Z</time>
      </trkpt>
      <trkpt lat="49.94471" lon="2.20296">
        <ele>37.4</ele>
        <time>2012-09-02T09:58:08Z</time>
      </trkpt>
      <trkpt lat="49.94459" lon="2.2031">
        <ele>37.4</ele>
        <time>2012-09-02T09:58:18Z</time>
      </trkpt>
      <trkpt lat="49.94448" lon="2.20322">
        <ele>40.2</ele>
        <time>2012-09-02T09:58:28Z</time>
      </trkpt>
      <trkpt lat="49.94437" lon="2.20336">
        <ele>44.2</ele>
        <time>2012-09-02T09:58:38Z</time>
      </trkpt>
      <trkpt lat="49.94427" lon="2.20351">
        <ele>48.2</ele>
        <time>2012-09-02T09:58:48Z</time>
      </trkpt>
      <trkpt lat="49.94417" lon="2.20368">
        <ele>48.6</ele>
        <time>2012-09-02T09:58:59Z</time>
      </trkpt>
      <trkpt lat="49.94407" lon="2.20384">
        <ele>48.6</ele>
        <time>2012-09-02T09:59:09Z</time>
      </trkpt>
      <trkpt lat="49.94398" lon="2.20401">
        <ele>48.6</ele>
        <time>2012-09-02T09:59:20Z</time>
      </trkpt>
      <trkpt lat="49.94388" lon="2.20415">
        <ele>48.6</ele>
        <time>2012-09-02T09:59:29Z</time>
      </trkpt>
      <trkpt lat="49.94378" lon="2.2043">
        <ele>48.6</ele>
        <time>2012-09-02T09:59:40Z</time>
      </trkpt>
      <trkpt lat="49.94368" lon="2.20446">
        <ele>48.6</ele>
        <time>2012-09-02T09:59:51Z</time>
      </trkpt>
      <trkpt lat="49.94357" lon="2.20458">
        <ele>48.6</ele>
        <time>2012-09-02T10:00:00Z</time>
      </trkpt>
      <trkpt lat="49.94346" lon="2.20472">
        <ele>48.6</ele>
        <time>2012-09-02T10:00:12Z</time>
      </trkpt>
      <trkpt lat="49.94335" lon="2.20487">
        <ele>48.6</ele>
        <time>2012-09-02T10:00:23Z</time>
      </trkpt>
      <trkpt lat="49.94325" lon="2.20501">
        <ele>48.6</ele>
        <time>2012-09-02T10:00:32Z</time>
      </trkpt>
      <trkpt lat="49.94313" lon="2.20513">
        <ele>48.6</ele>
        <time>2012-09-02T10:00:42Z</time>
      </trkpt>
      <trkpt lat="49.94301" lon="2.20526">
        <ele>48.6</ele>
        <time>2012-09-02T10:00:53Z</time>
      </trkpt>
      <trkpt lat="49.94291" lon="2.2054">
        <ele>48.6</ele>
        <time>2012-09-02T10:01:02Z</time>
      </trkpt>
      <trkpt lat="49.94279" lon="2.20555">
        <ele>48.6</ele>
        <time>2012-09-02T10:01:13Z</time>
      </trkpt>
      <trkpt lat="49.94269" lon="2.20571">
        <ele>48.6</ele>
        <time>2012-09-02T10:01:23Z</time>
      </trkpt>
      <trkpt lat="49.9426" lon="2.20587">
        <ele>48.6</ele>
        <time>2012-09-02T10:01:33Z</time>
      </trkpt>
      <trkpt lat="49.9425" lon="2.20604">
        <ele>48.6</ele>
        <time>2012-09-02T10:01:44Z</time>
      </trkpt>
      <trkpt lat="49.94241" lon="2.20619">
        <ele>48.6</ele>
        <time>2012-09-02T10:01:55Z</time>
      </trkpt>
      <trkpt lat="49.94231" lon="2.20636">
        <ele>48.6</ele>
        <time>2012-09-02T10:02:06Z</time>
      </trkpt>
      <trkpt lat="49.94222" lon="2.20652">
        <ele>48.6</ele>
        <time>2012-09-02T10:02:16Z</time>
      </trkpt>
      <trkpt lat="49.94212" lon="2.20669">
        <ele>48.6</ele>
        <time>2012-09-02T10:02:26Z</time>
      </trkpt>
      <trkpt lat="49.94204" lon="2.20687">
        <ele>48.6</ele>
        <time>2012-09-02T10:02:38Z</time>
      </trkpt>
      <trkpt lat="49.94197" lon="2.20706">
        <ele>36.3</ele>
        <time>2012-09-02T10:02:49Z</time>
      </trkpt>
      <trkpt lat="49.94188" lon="2.20723">
        <ele>36.3</ele>
        <time>2012-09-02T10:02:58Z</time>
      </trkpt>
      <trkpt lat="49.94181" lon="2.2074">
        <ele>36.3</ele>
        <time>2012-09-02T10:03:08Z</time>
      </trkpt>
      <trkpt lat="49.94175" lon="2.20759">
        <ele>36.3</ele>
        <time>2012-09-02T10:03:18Z</time>
      </trkpt>
      <trkpt lat="49.94167" lon="2.20778">
        <ele>36.3</ele>
        <time>2012-09-02T10:03:28Z</time>
      </trkpt>
      <trkpt lat="49.94159" lon="2.20796">
        <ele>36.3</ele>
        <time>2012-09-02T10:03:38Z</time>
      </trkpt>
      <trkpt lat="49.9415" lon="2.20813">
        <ele>36.3</ele>
        <time>2012-09-02T10:03:49Z</time>
      </trkpt>
      <trkpt lat="49.94143" lon="2.20833">
        <ele>36.3</ele>
        <time>2012-09-02T10:04:00Z</time>
      </trkpt>
      <trkpt lat="49.94135" lon="2.2085">
        <ele>36.3</ele>
        <time>2012-09-02T10:04:10Z</time>
      </trkpt>
      <trkpt lat="49.94126" lon="2.2087">
        <ele>36.3</ele>
        <time>2012-09-02T10:04:21Z</time>
      </trkpt>
      <trkpt lat="49.94118" lon="2.2089">
        <ele>36.3</ele>
        <time>2012-09-02T10:04:33Z</time>
      </trkpt>
      <trkpt lat="49.94112" lon="2.20909">
        <ele>36.3</ele>
        <time>2012-09-02T10:04:43Z</time>
      </trkpt>
      <trkpt lat="49.94105" lon="2.20929">
        <ele>36.3</ele>
        <time>2012-09-02T10:04:53Z</time>
      </trkpt>
      <trkpt lat="49.94097" lon="2.20948">
        <ele>36.3</ele>
        <time>2012-09-02T10:05:04Z</time>
      </trkpt>
      <trkpt lat="49.9409" lon="2.20967">
        <ele>36.3</ele>
        <time>2012-09-02T10:05:15Z</time>
      </trkpt>
      <trkpt lat="49.94082" lon="2.20987">
        <ele>36.3</ele>
        <time>2012-09-02T10:05:25Z</time>
      </trkpt>
      <trkpt lat="49.94076" lon="2.21008">
        <ele>36.3</ele>
        <time>2012-09-02T10:05:35Z</time>
      </trkpt>
      <trkpt lat="49.94065" lon="2.21024">
        <ele>36.3</ele>
        <time>2012-09-02T10:05:46Z</time>
      </trkpt>
      <trkpt lat="49.94056" lon="2.21041">
        <ele>36.3</ele>
        <time>2012-09-02T10:05:56Z</time>
      </trkpt>
      <trkpt lat="49.94046" lon="2.21057">
        <ele>36.3</ele>
        <time>2012-09-02T10:06:06Z</time>
      </trkpt>
      <trkpt lat="49.94037" lon="2.21074">
        <ele>36.3</ele>
        <time>2012-09-02T10:06:16Z</time>
      </trkpt>
      <trkpt lat="49.94026" lon="2.2109">
        <ele>36.3</ele>
        <time>2012-09-02T10:06:29Z</time>
      </trkpt>
      <trkpt lat="49.94019" lon="2.21108">
        <ele>36.3</ele>
        <time>2012-09-02T10:06:38Z</time>
      </trkpt>
      <trkpt lat="49.94011" lon="2.21126">
        <ele>36.3</ele>
        <time>2012-09-02T10:06:47Z</time>
      </trkpt>
      <trkpt lat="49.94002" lon="2.21144">
        <ele>36.3</ele>
        <time>2012-09-02T10:06:57Z</time>
      </trkpt>
      <trkpt lat="49.93994" lon="2.21162">
        <ele>36.3</ele>
        <time>2012-09-02T10:07:06Z</time>
      </trkpt>
      <trkpt lat="49.93988" lon="2.21182">
        <ele>36.3</ele>
        <time>2012-09-02T10:07:16Z</time>
      </trkpt>
      <trkpt lat="49.93981" lon="2.212">
        <ele>36.3</ele>
        <time>2012-09-02T10:07:26Z</time>
      </trkpt>
      <trkpt lat="49.93972" lon="2.21217">
        <ele>36.3</ele>
        <time>2012-09-02T10:07:36Z</time>
      </trkpt>
      <trkpt lat="49.93965" lon="2.21235">
        <ele>36.3</ele>
        <time>2012-09-02T10:07:47Z</time>
      </trkpt>
      <trkpt lat="49.93958" lon="2.21256">
        <ele>36.3</ele>
        <time>2012-09-02T10:07:58Z</time>
      </trkpt>
      <trkpt lat="49.93951" lon="2.21277">
        <ele>36.3</ele>
        <time>2012-09-02T10:08:09Z</time>
      </trkpt>
      <trkpt lat="49.93942" lon="2.21294">
        <ele>36.3</ele>
        <time>2012-09-02T10:08:19Z</time>
      </trkpt>
      <trkpt lat="49.93934" lon="2.21312">
        <ele>36.3</ele>
        <time>2012-09-02T10:08:30Z</time>
      </trkpt>
      <trkpt lat="49.93916" lon="2.21356">
        <ele>31.2</ele>
        <time>2012-09-02T10:08:43Z</time>
      </trkpt>
      <trkpt lat="49.93916" lon="2.21356">
        <ele>31.2</ele>
        <time>2012-09-02T10:15:47Z</time>
      </trkpt>
      <trkpt lat="49.93904" lon="2.21381">
        <ele>26</ele>
        <time>2012-09-02T10:15:57Z</time>
      </trkpt>
      <trkpt lat="49.93897" lon="2.214">
        <ele>31.4</ele>
        <time>2012-09-02T10:16:10Z</time>
      </trkpt>
      <trkpt lat="49.93888" lon="2.21416">
        <ele>35.2</ele>
        <time>2012-09-02T10:16:21Z</time>
      </trkpt>
      <trkpt lat="49.93878" lon="2.21433">
        <ele>35.2</ele>
        <time>2012-09-02T10:16:33Z</time>
      </trkpt>
      <trkpt lat="49.93868" lon="2.21447">
        <ele>35.2</ele>
        <time>2012-09-02T10:16:45Z</time>
      </trkpt>
      <trkpt lat="49.93859" lon="2.21464">
        <ele>35.2</ele>
        <time>2012-09-02T10:16:55Z</time>
      </trkpt>
      <trkpt lat="49.93848" lon="2.21479">
        <ele>35.2</ele>
        <time>2012-09-02T10:17:09Z</time>
      </trkpt>
      <trkpt lat="49.9384" lon="2.21496">
        <ele>35.2</ele>
        <time>2012-09-02T10:17:18Z</time>
      </trkpt>
      <trkpt lat="49.93833" lon="2.21515">
        <ele>35.2</ele>
        <time>2012-09-02T10:17:29Z</time>
      </trkpt>
      <trkpt lat="49.93824" lon="2.21534">
        <ele>35.2</ele>
        <time>2012-09-02T10:17:40Z</time>
      </trkpt>
      <trkpt lat="49.93819" lon="2.21554">
        <ele>35.2</ele>
        <time>2012-09-02T10:17:51Z</time>
      </trkpt>
      <trkpt lat="49.9381" lon="2.21572">
        <ele>35.2</ele>
        <time>2012-09-02T10:18:02Z</time>
      </trkpt>
      <trkpt lat="49.93802" lon="2.2159">
        <ele>35.2</ele>
        <time>2012-09-02T10:18:13Z</time>
      </trkpt>
      <trkpt lat="49.93792" lon="2.21605">
        <ele>35.2</ele>
        <time>2012-09-02T10:18:23Z</time>
      </trkpt>
      <trkpt lat="49.93783" lon="2.21622">
        <ele>35.2</ele>
        <time>2012-09-02T10:18:34Z</time>
      </trkpt>
      <trkpt lat="49.93772" lon="2.21636">
        <ele>35.2</ele>
        <time>2012-09-02T10:18:44Z</time>
      </trkpt>
      <trkpt lat="49.93762" lon="2.2165">
        <ele>35.2</ele>
        <time>2012-09-02T10:18:54Z</time>
      </trkpt>
      <trkpt lat="49.93753" lon="2.21666">
        <ele>37.6</ele>
        <time>2012-09-02T10:19:06Z</time>
      </trkpt>
      <trkpt lat="49.93744" lon="2.21683">
        <ele>40.2</ele>
        <time>2012-09-02T10:19:17Z</time>
      </trkpt>
      <trkpt lat="49.93733" lon="2.217">
        <ele>42.8</ele>
        <time>2012-09-02T10:19:28Z</time>
      </trkpt>
      <trkpt lat="49.93724" lon="2.21717">
        <ele>45.2</ele>
        <time>2012-09-02T10:19:38Z</time>
      </trkpt>
      <trkpt lat="49.93715" lon="2.21736">
        <ele>46.2</ele>
        <time>2012-09-02T10:19:48Z</time>
      </trkpt>
      <trkpt lat="49.93709" lon="2.21755">
        <ele>43.7</ele>
        <time>2012-09-02T10:19:59Z</time>
      </trkpt>
      <trkpt lat="49.93701" lon="2.21773">
        <ele>39.1</ele>
        <time>2012-09-02T10:20:10Z</time>
      </trkpt>
      <trkpt lat="49.93695" lon="2.21793">
        <ele>35</ele>
        <time>2012-09-02T10:20:20Z</time>
      </trkpt>
      <trkpt lat="49.9369" lon="2.21813">
        <ele>34.6</ele>
        <time>2012-09-02T10:20:29Z</time>
      </trkpt>
      <trkpt lat="49.93686" lon="2.21834">
        <ele>34.6</ele>
        <time>2012-09-02T10:20:40Z</time>
      </trkpt>
      <trkpt lat="49.93681" lon="2.21856">
        <ele>34.6</ele>
        <time>2012-09-02T10:20:50Z</time>
      </trkpt>
      <trkpt lat="49.93678" lon="2.21876">
        <ele>34.6</ele>
        <time>2012-09-02T10:21:02Z</time>
      </trkpt>
      <trkpt lat="49.93674" lon="2.21897">
        <ele>34.6</ele>
        <time>2012-09-02T10:21:12Z</time>
      </trkpt>
      <trkpt lat="49.93668" lon="2.21918">
        <ele>38.6</ele>
        <time>2012-09-02T10:21:23Z</time>
      </trkpt>
      <trkpt lat="49.93665" lon="2.21938">
        <ele>43.6</ele>
        <time>2012-09-02T10:21:33Z</time>
      </trkpt>
      <trkpt lat="49.9366" lon="2.21958">
        <ele>45.6</ele>
        <time>2012-09-02T10:21:45Z</time>
      </trkpt>
      <trkpt lat="49.93653" lon="2.21978">
        <ele>45.6</ele>
        <time>2012-09-02T10:21:56Z</time>
      </trkpt>
      <trkpt lat="49.93647" lon="2.21998">
        <ele>45.6</ele>
        <time>2012-09-02T10:22:07Z</time>
      </trkpt>
      <trkpt lat="49.93641" lon="2.22017">
        <ele>44.8</ele>
        <time>2012-09-02T10:22:17Z</time>
      </trkpt>
      <trkpt lat="49.93634" lon="2.22036">
        <ele>43.1</ele>
        <time>2012-09-02T10:22:27Z</time>
      </trkpt>
      <trkpt lat="49.93626" lon="2.22054">
        <ele>41.2</ele>
        <time>2012-09-02T10:22:38Z</time>
      </trkpt>
      <trkpt lat="49.93618" lon="2.22072">
        <ele>39.4</ele>
        <time>2012-09-02T10:22:49Z</time>
      </trkpt>
      <trkpt lat="49.93611" lon="2.2209">
        <ele>37.3</ele>
        <time>2012-09-02T10:23:01Z</time>
      </trkpt>
      <trkpt lat="49.93602" lon="2.22108">
        <ele>35.5</ele>
        <time>2012-09-02T10:23:12Z</time>
      </trkpt>
      <trkpt lat="49.93594" lon="2.22125">
        <ele>34.3</ele>
        <time>2012-09-02T10:23:22Z</time>
      </trkpt>
      <trkpt lat="49.93586" lon="2.22143">
        <ele>34.3</ele>
        <time>2012-09-02T10:23:33Z</time>
      </trkpt>
      <trkpt lat="49.93578" lon="2.22162">
        <ele>34.3</ele>
        <time>2012-09-02T10:23:45Z</time>
      </trkpt>
      <trkpt lat="49.9357" lon="2.2218">
        <ele>34.3</ele>
        <time>2012-09-02T10:23:55Z</time>
      </trkpt>
      <trkpt lat="49.93563" lon="2.22199">
        <ele>34.3</ele>
        <time>2012-09-02T10:24:05Z</time>
      </trkpt>
      <trkpt lat="49.93554" lon="2.22215">
        <ele>34.3</ele>
        <time>2012-09-02T10:24:15Z</time>
      </trkpt>
      <trkpt lat="49.93546" lon="2.22234">
        <ele>34.3</ele>
        <time>2012-09-02T10:24:26Z</time>
      </trkpt>
      <trkpt lat="49.93537" lon="2.22253">
        <ele>34.3</ele>
        <time>2012-09-02T10:24:36Z</time>
      </trkpt>
      <trkpt lat="49.93529" lon="2.22271">
        <ele>34.3</ele>
        <time>2012-09-02T10:24:47Z</time>
      </trkpt>
      <trkpt lat="49.93521" lon="2.22288">
        <ele>34.3</ele>
        <time>2012-09-02T10:24:57Z</time>
      </trkpt>
      <trkpt lat="49.93514" lon="2.22307">
        <ele>34.3</ele>
        <time>2012-09-02T10:25:07Z</time>
      </trkpt>
      <trkpt lat="49.93504" lon="2.22323">
        <ele>34.3</ele>
        <time>2012-09-02T10:25:18Z</time>
      </trkpt>
      <trkpt lat="49.93498" lon="2.22344">
        <ele>34.3</ele>
        <time>2012-09-02T10:25:29Z</time>
      </trkpt>
      <trkpt lat="49.93492" lon="2.22363">
        <ele>34.3</ele>
        <time>2012-09-02T10:25:40Z</time>
      </trkpt>
      <trkpt lat="49.93483" lon="2.22379">
        <ele>34.3</ele>
        <time>2012-09-02T10:25:50Z</time>
      </trkpt>
      <trkpt lat="49.93477" lon="2.22398">
        <ele>34.3</ele>
        <time>2012-09-02T10:26:00Z</time>
      </trkpt>
      <trkpt lat="49.93473" lon="2.22419">
        <ele>34.3</ele>
        <time>2012-09-02T10:26:11Z</time>
      </trkpt>
      <trkpt lat="49.93468" lon="2.22439">
        <ele>34.3</ele>
        <time>2012-09-02T10:26:21Z</time>
      </trkpt>
      <trkpt lat="49.93464" lon="2.2246">
        <ele>34.3</ele>
        <time>2012-09-02T10:26:32Z</time>
      </trkpt>
      <trkpt lat="49.93457" lon="2.22479">
        <ele>34.3</ele>
        <time>2012-09-02T10:26:42Z</time>
      </trkpt>
      <trkpt lat="49.93452" lon="2.22499">
        <ele>34.3</ele>
        <time>2012-09-02T10:26:52Z</time>
      </trkpt>
      <trkpt lat="49.93445" lon="2.22518">
        <ele>34.3</ele>
        <time>2012-09-02T10:27:03Z</time>
      </trkpt>
      <trkpt lat="49.93437" lon="2.22535">
        <ele>34.3</ele>
        <time>2012-09-02T10:27:12Z</time>
      </trkpt>
      <trkpt lat="49.9343" lon="2.22555">
        <ele>34.3</ele>
        <time>2012-09-02T10:27:25Z</time>
      </trkpt>
      <trkpt lat="49.93423" lon="2.22573">
        <ele>34.3</ele>
        <time>2012-09-02T10:27:33Z</time>
      </trkpt>
      <trkpt lat="49.93415" lon="2.22592">
        <ele>34.3</ele>
        <time>2012-09-02T10:27:45Z</time>
      </trkpt>
      <trkpt lat="49.93407" lon="2.22609">
        <ele>34.3</ele>
        <time>2012-09-02T10:27:54Z</time>
      </trkpt>
      <trkpt lat="49.93397" lon="2.22626">
        <ele>34.3</ele>
        <time>2012-09-02T10:28:05Z</time>
      </trkpt>
      <trkpt lat="49.93388" lon="2.22643">
        <ele>34.3</ele>
        <time>2012-09-02T10:28:14Z</time>
      </trkpt>
      <trkpt lat="49.93379" lon="2.2266">
        <ele>34.3</ele>
        <time>2012-09-02T10:28:26Z</time>
      </trkpt>
      <trkpt lat="49.93369" lon="2.22677">
        <ele>34.3</ele>
        <time>2012-09-02T10:28:37Z</time>
      </trkpt>
      <trkpt lat="49.93362" lon="2.22696">
        <ele>34.3</ele>
        <time>2012-09-02T10:28:47Z</time>
      </trkpt>
      <trkpt lat="49.93356" lon="2.22715">
        <ele>34.3</ele>
        <time>2012-09-02T10:28:56Z</time>
      </trkpt>
      <trkpt lat="49.93347" lon="2.22733">
        <ele>34.3</ele>
        <time>2012-09-02T10:29:08Z</time>
      </trkpt>
      <trkpt lat="49.9334" lon="2.22753">
        <ele>34.3</ele>
        <time>2012-09-02T10:29:20Z</time>
      </trkpt>
      <trkpt lat="49.93331" lon="2.2277">
        <ele>34.3</ele>
        <time>2012-09-02T10:29:30Z</time>
      </trkpt>
      <trkpt lat="49.93316" lon="2.22769">
        <ele>34.3</ele>
        <time>2012-09-02T10:29:43Z</time>
      </trkpt>
      <trkpt lat="49.93306" lon="2.22748">
        <ele>34.3</ele>
        <time>2012-09-02T10:29:57Z</time>
      </trkpt>
      <trkpt lat="49.93295" lon="2.22736">
        <ele>34.3</ele>
        <time>2012-09-02T10:30:09Z</time>
      </trkpt>
      <trkpt lat="49.93282" lon="2.22725">
        <ele>34.3</ele>
        <time>2012-09-02T10:30:20Z</time>
      </trkpt>
      <trkpt lat="49.93269" lon="2.22714">
        <ele>34.3</ele>
        <time>2012-09-02T10:30:30Z</time>
      </trkpt>
      <trkpt lat="49.93256" lon="2.22703">
        <ele>34.3</ele>
        <time>2012-09-02T10:30:42Z</time>
      </trkpt>
      <trkpt lat="49.93244" lon="2.22692">
        <ele>34.3</ele>
        <time>2012-09-02T10:30:53Z</time>
      </trkpt>
      <trkpt lat="49.93232" lon="2.22681">
        <ele>34.3</ele>
        <time>2012-09-02T10:31:03Z</time>
      </trkpt>
      <trkpt lat="49.9322" lon="2.22671">
        <ele>34.3</ele>
        <time>2012-09-02T10:31:13Z</time>
      </trkpt>
      <trkpt lat="49.93206" lon="2.22662">
        <ele>34.3</ele>
        <time>2012-09-02T10:31:24Z</time>
      </trkpt>
      <trkpt lat="49.93195" lon="2.2265">
        <ele>34.3</ele>
        <time>2012-09-02T10:31:33Z</time>
      </trkpt>
      <trkpt lat="49.93183" lon="2.22639">
        <ele>34.3</ele>
        <time>2012-09-02T10:31:42Z</time>
      </trkpt>
      <trkpt lat="49.9317" lon="2.22633">
        <ele>34.3</ele>
        <time>2012-09-02T10:31:53Z</time>
      </trkpt>
      <trkpt lat="49.93157" lon="2.22622">
        <ele>34.3</ele>
        <time>2012-09-02T10:32:04Z</time>
      </trkpt>
      <trkpt lat="49.93142" lon="2.22609">
        <ele>30</ele>
        <time>2012-09-02T10:32:14Z</time>
      </trkpt>
      <trkpt lat="49.93129" lon="2.226">
        <ele>21.3</ele>
        <time>2012-09-02T10:32:25Z</time>
      </trkpt>
      <trkpt lat="49.93115" lon="2.22585">
        <ele>21.3</ele>
        <time>2012-09-02T10:32:37Z</time>
      </trkpt>
      <trkpt lat="49.93102" lon="2.22573">
        <ele>20.3</ele>
        <time>2012-09-02T10:32:48Z</time>
      </trkpt>
      <trkpt lat="49.93091" lon="2.2256">
        <ele>19</ele>
        <time>2012-09-02T10:33:00Z</time>
      </trkpt>
      <trkpt lat="49.9308" lon="2.22546">
        <ele>18</ele>
        <time>2012-09-02T10:33:09Z</time>
      </trkpt>
      <trkpt lat="49.93067" lon="2.22533">
        <ele>17</ele>
        <time>2012-09-02T10:33:18Z</time>
      </trkpt>
      <trkpt lat="49.93059" lon="2.22516">
        <ele>15.7</ele>
        <time>2012-09-02T10:33:30Z</time>
      </trkpt>
      <trkpt lat="49.93047" lon="2.22502">
        <ele>14.5</ele>
        <time>2012-09-02T10:33:41Z</time>
      </trkpt>
      <trkpt lat="49.93034" lon="2.22512">
        <ele>13.4</ele>
        <time>2012-09-02T10:33:51Z</time>
      </trkpt>
      <trkpt lat="49.93025" lon="2.22528">
        <ele>12.3</ele>
        <time>2012-09-02T10:34:01Z</time>
      </trkpt>
      <trkpt lat="49.93015" lon="2.22543">
        <ele>11.2</ele>
        <time>2012-09-02T10:34:11Z</time>
      </trkpt>
      <trkpt lat="49.93005" lon="2.22561">
        <ele>10.1</ele>
        <time>2012-09-02T10:34:21Z</time>
      </trkpt>
      <trkpt lat="49.92997" lon="2.22578">
        <ele>9.9</ele>
        <time>2012-09-02T10:34:31Z</time>
      </trkpt>
      <trkpt lat="49.92985" lon="2.2259">
        <ele>10.3</ele>
        <time>2012-09-02T10:34:41Z</time>
      </trkpt>
      <trkpt lat="49.92972" lon="2.22586">
        <ele>14.5</ele>
        <time>2012-09-02T10:34:52Z</time>
      </trkpt>
      <trkpt lat="49.92959" lon="2.22573">
        <ele>18.7</ele>
        <time>2012-09-02T10:35:03Z</time>
      </trkpt>
      <trkpt lat="49.92945" lon="2.22568">
        <ele>20.2</ele>
        <time>2012-09-02T10:35:12Z</time>
      </trkpt>
      <trkpt lat="49.92928" lon="2.22561">
        <ele>20.2</ele>
        <time>2012-09-02T10:35:21Z</time>
      </trkpt>
      <trkpt lat="49.92917" lon="2.2255">
        <ele>20.2</ele>
        <time>2012-09-02T10:35:33Z</time>
      </trkpt>
      <trkpt lat="49.92907" lon="2.22533">
        <ele>20.2</ele>
        <time>2012-09-02T10:35:45Z</time>
      </trkpt>
      <trkpt lat="49.92896" lon="2.22517">
        <ele>20.2</ele>
        <time>2012-09-02T10:35:54Z</time>
      </trkpt>
      <trkpt lat="49.92884" lon="2.22504">
        <ele>20.2</ele>
        <time>2012-09-02T10:36:05Z</time>
      </trkpt>
      <trkpt lat="49.92872" lon="2.22495">
        <ele>20.2</ele>
        <time>2012-09-02T10:36:16Z</time>
      </trkpt>
      <trkpt lat="49.92858" lon="2.22491">
        <ele>20.2</ele>
        <time>2012-09-02T10:36:26Z</time>
      </trkpt>
      <trkpt lat="49.9284" lon="2.22483">
        <ele>20.2</ele>
        <time>2012-09-02T10:36:37Z</time>
      </trkpt>
      <trkpt lat="49.92825" lon="2.2248">
        <ele>20.2</ele>
        <time>2012-09-02T10:36:50Z</time>
      </trkpt>
      <trkpt lat="49.92812" lon="2.22476">
        <ele>20.2</ele>
        <time>2012-09-02T10:37:00Z</time>
      </trkpt>
      <trkpt lat="49.92798" lon="2.22469">
        <ele>20.2</ele>
        <time>2012-09-02T10:37:10Z</time>
      </trkpt>
      <trkpt lat="49.92783" lon="2.22473">
        <ele>20.2</ele>
        <time>2012-09-02T10:37:21Z</time>
      </trkpt>
      <trkpt lat="49.92768" lon="2.22473">
        <ele>20.2</ele>
        <time>2012-09-02T10:37:33Z</time>
      </trkpt>
      <trkpt lat="49.92754" lon="2.22466">
        <ele>20.2</ele>
        <time>2012-09-02T10:37:45Z</time>
      </trkpt>
      <trkpt lat="49.9274" lon="2.22463">
        <ele>20.2</ele>
        <time>2012-09-02T10:37:56Z</time>
      </trkpt>
      <trkpt lat="49.92726" lon="2.22457">
        <ele>20.2</ele>
        <time>2012-09-02T10:38:05Z</time>
      </trkpt>
      <trkpt lat="49.92711" lon="2.22454">
        <ele>17</ele>
        <time>2012-09-02T10:38:18Z</time>
      </trkpt>
      <trkpt lat="49.92698" lon="2.22449">
        <ele>8.3</ele>
        <time>2012-09-02T10:38:28Z</time>
      </trkpt>
      <trkpt lat="49.92682" lon="2.22443">
        <ele>8.3</ele>
        <time>2012-09-02T10:38:43Z</time>
      </trkpt>
      <trkpt lat="49.92669" lon="2.22436">
        <ele>8.3</ele>
        <time>2012-09-02T10:38:50Z</time>
      </trkpt>
      <trkpt lat="49.92655" lon="2.22434">
        <ele>8.3</ele>
        <time>2012-09-02T10:39:03Z</time>
      </trkpt>
      <trkpt lat="49.92641" lon="2.22434">
        <ele>8.3</ele>
        <time>2012-09-02T10:39:13Z</time>
      </trkpt>
      <trkpt lat="49.92627" lon="2.22429">
        <ele>8.3</ele>
        <time>2012-09-02T10:39:20Z</time>
      </trkpt>
      <trkpt lat="49.9261" lon="2.22421">
        <ele>8.3</ele>
        <time>2012-09-02T10:39:32Z</time>
      </trkpt>
      <trkpt lat="49.92592" lon="2.22418">
        <ele>8.3</ele>
        <time>2012-09-02T10:39:44Z</time>
      </trkpt>
      <trkpt lat="49.92578" lon="2.22413">
        <ele>8.3</ele>
        <time>2012-09-02T10:39:58Z</time>
      </trkpt>
      <trkpt lat="49.92564" lon="2.22407">
        <ele>8.3</ele>
        <time>2012-09-02T10:40:09Z</time>
      </trkpt>
      <trkpt lat="49.92551" lon="2.224">
        <ele>8.3</ele>
        <time>2012-09-02T10:40:19Z</time>
      </trkpt>
      <trkpt lat="49.92537" lon="2.22397">
        <ele>8.3</ele>
        <time>2012-09-02T10:40:28Z</time>
      </trkpt>
      <trkpt lat="49.92523" lon="2.22397">
        <ele>8.3</ele>
        <time>2012-09-02T10:40:40Z</time>
      </trkpt>
      <trkpt lat="49.92507" lon="2.22404">
        <ele>10.4</ele>
        <time>2012-09-02T10:40:50Z</time>
      </trkpt>
      <trkpt lat="49.92491" lon="2.22416">
        <ele>16.1</ele>
        <time>2012-09-02T10:41:04Z</time>
      </trkpt>
      <trkpt lat="49.92482" lon="2.22432">
        <ele>19.7</ele>
        <time>2012-09-02T10:41:17Z</time>
      </trkpt>
      <trkpt lat="49.92466" lon="2.22424">
        <ele>19.7</ele>
        <time>2012-09-02T10:41:31Z</time>
      </trkpt>
      <trkpt lat="49.92458" lon="2.22441">
        <ele>19.7</ele>
        <time>2012-09-02T10:41:47Z</time>
      </trkpt>
      <trkpt lat="49.92451" lon="2.22459">
        <ele>19.7</ele>
        <time>2012-09-02T10:41:58Z</time>
      </trkpt>
      <trkpt lat="49.92446" lon="2.2248">
        <ele>19.7</ele>
        <time>2012-09-02T10:42:08Z</time>
      </trkpt>
      <trkpt lat="49.92441" lon="2.22502">
        <ele>19.7</ele>
        <time>2012-09-02T10:42:17Z</time>
      </trkpt>
      <trkpt lat="49.92435" lon="2.22528">
        <ele>19.7</ele>
        <time>2012-09-02T10:42:28Z</time>
      </trkpt>
      <trkpt lat="49.92431" lon="2.22549">
        <ele>19.7</ele>
        <time>2012-09-02T10:42:41Z</time>
      </trkpt>
      <trkpt lat="49.92428" lon="2.2257">
        <ele>19.7</ele>
        <time>2012-09-02T10:42:51Z</time>
      </trkpt>
      <trkpt lat="49.92421" lon="2.22596">
        <ele>19.7</ele>
        <time>2012-09-02T10:43:02Z</time>
      </trkpt>
      <trkpt lat="49.92415" lon="2.22614">
        <ele>18.6</ele>
        <time>2012-09-02T10:43:15Z</time>
      </trkpt>
      <trkpt lat="49.92409" lon="2.22637">
        <ele>14.3</ele>
        <time>2012-09-02T10:43:27Z</time>
      </trkpt>
      <trkpt lat="49.92404" lon="2.22658">
        <ele>10.4</ele>
        <time>2012-09-02T10:43:38Z</time>
      </trkpt>
      <trkpt lat="49.92398" lon="2.22677">
        <ele>9.3</ele>
        <time>2012-09-02T10:43:48Z</time>
      </trkpt>
      <trkpt lat="49.92392" lon="2.22697">
        <ele>9.3</ele>
        <time>2012-09-02T10:43:58Z</time>
      </trkpt>
      <trkpt lat="49.92388" lon="2.22723">
        <ele>9.3</ele>
        <time>2012-09-02T10:44:11Z</time>
      </trkpt>
      <trkpt lat="49.92385" lon="2.22744">
        <ele>9.3</ele>
        <time>2012-09-02T10:44:25Z</time>
      </trkpt>
      <trkpt lat="49.92381" lon="2.22764">
        <ele>9.3</ele>
        <time>2012-09-02T10:44:32Z</time>
      </trkpt>
      <trkpt lat="49.9238" lon="2.22787">
        <ele>9.3</ele>
        <time>2012-09-02T10:44:44Z</time>
      </trkpt>
      <trkpt lat="49.92376" lon="2.22809">
        <ele>9.3</ele>
        <time>2012-09-02T10:44:54Z</time>
      </trkpt>
      <trkpt lat="49.92374" lon="2.2283">
        <ele>9.3</ele>
        <time>2012-09-02T10:45:05Z</time>
      </trkpt>
      <trkpt lat="49.92371" lon="2.22847">
        <ele>9.3</ele>
        <time>2012-09-02T10:45:13Z</time>
      </trkpt>
      <trkpt lat="49.92368" lon="2.22868">
        <ele>9.3</ele>
        <time>2012-09-02T10:45:28Z</time>
      </trkpt>
      <trkpt lat="49.92362" lon="2.22887">
        <ele>9.3</ele>
        <time>2012-09-02T10:45:39Z</time>
      </trkpt>
      <trkpt lat="49.92356" lon="2.22909">
        <ele>9.3</ele>
        <time>2012-09-02T10:45:49Z</time>
      </trkpt>
      <trkpt lat="49.92354" lon="2.22929">
        <ele>9.3</ele>
        <time>2012-09-02T10:45:59Z</time>
      </trkpt>
      <trkpt lat="49.92346" lon="2.22946">
        <ele>9.3</ele>
        <time>2012-09-02T10:46:12Z</time>
      </trkpt>
      <trkpt lat="49.92331" lon="2.22945">
        <ele>9.3</ele>
        <time>2012-09-02T10:46:25Z</time>
      </trkpt>
      <trkpt lat="49.92315" lon="2.22946">
        <ele>9.3</ele>
        <time>2012-09-02T10:46:39Z</time>
      </trkpt>
      <trkpt lat="49.92302" lon="2.2294">
        <ele>9.3</ele>
        <time>2012-09-02T10:46:51Z</time>
      </trkpt>
      <trkpt lat="49.92288" lon="2.22944">
        <ele>9.3</ele>
        <time>2012-09-02T10:47:06Z</time>
      </trkpt>
      <trkpt lat="49.92273" lon="2.22942">
        <ele>9.3</ele>
        <time>2012-09-02T10:47:16Z</time>
      </trkpt>
      <trkpt lat="49.92259" lon="2.22942">
        <ele>9.3</ele>
        <time>2012-09-02T10:47:29Z</time>
      </trkpt>
      <trkpt lat="49.92244" lon="2.22937">
        <ele>9.3</ele>
        <time>2012-09-02T10:47:41Z</time>
      </trkpt>
      <trkpt lat="49.92226" lon="2.22937">
        <ele>9.3</ele>
        <time>2012-09-02T10:47:50Z</time>
      </trkpt>
      <trkpt lat="49.92212" lon="2.22939">
        <ele>9.3</ele>
        <time>2012-09-02T10:48:03Z</time>
      </trkpt>
      <trkpt lat="49.92197" lon="2.22938">
        <ele>9.3</ele>
        <time>2012-09-02T10:48:13Z</time>
      </trkpt>
      <trkpt lat="49.92174" lon="2.2292">
        <ele>9.3</ele>
        <time>2012-09-02T10:48:30Z</time>
      </trkpt>
      <trkpt lat="49.92174" lon="2.2292">
        <ele>9.3</ele>
        <time>2012-09-02T10:49:01Z</time>
      </trkpt>
      <trkpt lat="49.92165" lon="2.22904">
        <ele>9.3</ele>
        <time>2012-09-02T10:49:05Z</time>
      </trkpt>
      <trkpt lat="49.92164" lon="2.22895">
        <ele>9.3</ele>
        <time>2012-09-02T10:49:12Z</time>
      </trkpt>
    </trkseg>
  </trk>
</gpx>